<?xml version="1.0" encoding="UTF-8" standalone="no" ?>
<gpx xmlns="http://www.topografix.com/GPX/1/1" xmlns:xsi="http://www.w3.org/2001/XMLSchema-instance" xsi:schemaLocation="http://www.topografix.com/GPX/1/1 http://www.topografix.com/GPX/1/1/gpx.xsd" version="1.1" creator="VisuGPX - https://www.visugpx.com">
  <metadata>
    <name>RSPG Sigottier circuit des Michons Saumane</name>
    <desc><![CDATA[Avant Sigottier, se garer au bord de la route a proximité du moulin le PAROY puis prendre le sentier qui mont vers le hameau de Michons]]></desc>
  </metadata>
  <trk>
    <name><![CDATA[Circuits des Michons La Saumane: 21 OCT 2014 10:55 001]]></name>
    <trkseg>
      <trkpt lat="44.4365" lon="5.7099">
        <ele>692.77</ele>
        <time>2014-10-21T08:55:57Z</time>
      </trkpt>
      <trkpt lat="44.4365" lon="5.7099">
        <ele>692.77</ele>
        <time>2014-10-21T08:55:58Z</time>
      </trkpt>
      <trkpt lat="44.4365" lon="5.70988">
        <ele>693.25</ele>
        <time>2014-10-21T08:56:08Z</time>
      </trkpt>
      <trkpt lat="44.43655" lon="5.70982">
        <ele>693.25</ele>
        <time>2014-10-21T08:56:14Z</time>
      </trkpt>
      <trkpt lat="44.43655" lon="5.70975">
        <ele>693.73</ele>
        <time>2014-10-21T08:56:19Z</time>
      </trkpt>
      <trkpt lat="44.43655" lon="5.70958">
        <ele>695.17</ele>
        <time>2014-10-21T08:56:32Z</time>
      </trkpt>
      <trkpt lat="44.43655" lon="5.70956">
        <ele>695.17</ele>
        <time>2014-10-21T08:56:34Z</time>
      </trkpt>
      <trkpt lat="44.43656" lon="5.70935">
        <ele>697.09</ele>
        <time>2014-10-21T08:56:50Z</time>
      </trkpt>
      <trkpt lat="44.43658" lon="5.70914">
        <ele>699.02</ele>
        <time>2014-10-21T08:57:05Z</time>
      </trkpt>
      <trkpt lat="44.43656" lon="5.70901">
        <ele>699.98</ele>
        <time>2014-10-21T08:57:16Z</time>
      </trkpt>
      <trkpt lat="44.43655" lon="5.70891">
        <ele>701.9</ele>
        <time>2014-10-21T08:57:29Z</time>
      </trkpt>
      <trkpt lat="44.43661" lon="5.70888">
        <ele>703.34</ele>
        <time>2014-10-21T08:57:46Z</time>
      </trkpt>
      <trkpt lat="44.43667" lon="5.70882">
        <ele>702.38</ele>
        <time>2014-10-21T08:57:59Z</time>
      </trkpt>
      <trkpt lat="44.43667" lon="5.70883">
        <ele>702.38</ele>
        <time>2014-10-21T08:58:02Z</time>
      </trkpt>
      <trkpt lat="44.43672" lon="5.7087">
        <ele>702.86</ele>
        <time>2014-10-21T08:58:14Z</time>
      </trkpt>
      <trkpt lat="44.43682" lon="5.70852">
        <ele>703.82</ele>
        <time>2014-10-21T08:58:29Z</time>
      </trkpt>
      <trkpt lat="44.43689" lon="5.7084">
        <ele>704.78</ele>
        <time>2014-10-21T08:58:43Z</time>
      </trkpt>
      <trkpt lat="44.43689" lon="5.70844">
        <ele>704.78</ele>
        <time>2014-10-21T08:58:54Z</time>
      </trkpt>
      <trkpt lat="44.43695" lon="5.70838">
        <ele>704.78</ele>
        <time>2014-10-21T08:59:12Z</time>
      </trkpt>
      <trkpt lat="44.437" lon="5.70825">
        <ele>707.19</ele>
        <time>2014-10-21T08:59:24Z</time>
      </trkpt>
      <trkpt lat="44.43707" lon="5.70812">
        <ele>708.63</ele>
        <time>2014-10-21T08:59:37Z</time>
      </trkpt>
      <trkpt lat="44.4371" lon="5.70809">
        <ele>709.11</ele>
        <time>2014-10-21T08:59:41Z</time>
      </trkpt>
      <trkpt lat="44.43718" lon="5.70799">
        <ele>710.55</ele>
        <time>2014-10-21T08:59:53Z</time>
      </trkpt>
      <trkpt lat="44.43724" lon="5.70788">
        <ele>712.47</ele>
        <time>2014-10-21T09:00:06Z</time>
      </trkpt>
      <trkpt lat="44.4373" lon="5.70779">
        <ele>714.88</ele>
        <time>2014-10-21T09:00:18Z</time>
      </trkpt>
      <trkpt lat="44.43732" lon="5.70768">
        <ele>717.28</ele>
        <time>2014-10-21T09:00:31Z</time>
      </trkpt>
      <trkpt lat="44.43741" lon="5.70763">
        <ele>719.2</ele>
        <time>2014-10-21T09:00:46Z</time>
      </trkpt>
      <trkpt lat="44.43748" lon="5.70752">
        <ele>721.13</ele>
        <time>2014-10-21T09:01:01Z</time>
      </trkpt>
      <trkpt lat="44.43747" lon="5.70759">
        <ele>721.13</ele>
        <time>2014-10-21T09:01:26Z</time>
      </trkpt>
      <trkpt lat="44.43747" lon="5.70758">
        <ele>721.13</ele>
        <time>2014-10-21T09:01:51Z</time>
      </trkpt>
      <trkpt lat="44.43747" lon="5.70751">
        <ele>721.61</ele>
        <time>2014-10-21T09:02:07Z</time>
      </trkpt>
      <trkpt lat="44.43751" lon="5.70753">
        <ele>721.13</ele>
        <time>2014-10-21T09:02:28Z</time>
      </trkpt>
      <trkpt lat="44.43751" lon="5.70754">
        <ele>721.13</ele>
        <time>2014-10-21T09:02:39Z</time>
      </trkpt>
      <trkpt lat="44.43751" lon="5.70754">
        <ele>720.65</ele>
        <time>2014-10-21T09:02:51Z</time>
      </trkpt>
      <trkpt lat="44.4375" lon="5.7075">
        <ele>722.09</ele>
        <time>2014-10-21T09:03:03Z</time>
      </trkpt>
      <trkpt lat="44.43751" lon="5.70755">
        <ele>721.13</ele>
        <time>2014-10-21T09:03:22Z</time>
      </trkpt>
      <trkpt lat="44.43749" lon="5.70752">
        <ele>721.61</ele>
        <time>2014-10-21T09:03:40Z</time>
      </trkpt>
      <trkpt lat="44.43747" lon="5.70746">
        <ele>721.61</ele>
        <time>2014-10-21T09:04:07Z</time>
      </trkpt>
      <trkpt lat="44.43747" lon="5.70757">
        <ele>721.61</ele>
        <time>2014-10-21T09:04:21Z</time>
      </trkpt>
      <trkpt lat="44.43748" lon="5.7076">
        <ele>721.13</ele>
        <time>2014-10-21T09:04:47Z</time>
      </trkpt>
      <trkpt lat="44.43747" lon="5.70765">
        <ele>720.65</ele>
        <time>2014-10-21T09:05:12Z</time>
      </trkpt>
      <trkpt lat="44.43749" lon="5.70761">
        <ele>720.16</ele>
        <time>2014-10-21T09:05:32Z</time>
      </trkpt>
      <trkpt lat="44.43749" lon="5.70756">
        <ele>720.65</ele>
        <time>2014-10-21T09:05:48Z</time>
      </trkpt>
      <trkpt lat="44.43745" lon="5.70759">
        <ele>721.13</ele>
        <time>2014-10-21T09:06:10Z</time>
      </trkpt>
      <trkpt lat="44.43748" lon="5.70759">
        <ele>721.13</ele>
        <time>2014-10-21T09:06:32Z</time>
      </trkpt>
      <trkpt lat="44.43751" lon="5.70759">
        <ele>721.13</ele>
        <time>2014-10-21T09:06:44Z</time>
      </trkpt>
      <trkpt lat="44.43751" lon="5.70758">
        <ele>720.65</ele>
        <time>2014-10-21T09:07:01Z</time>
      </trkpt>
      <trkpt lat="44.43746" lon="5.70756">
        <ele>721.13</ele>
        <time>2014-10-21T09:07:26Z</time>
      </trkpt>
      <trkpt lat="44.43751" lon="5.70752">
        <ele>722.09</ele>
        <time>2014-10-21T09:07:41Z</time>
      </trkpt>
      <trkpt lat="44.43759" lon="5.70742">
        <ele>724.97</ele>
        <time>2014-10-21T09:07:54Z</time>
      </trkpt>
      <trkpt lat="44.43767" lon="5.70729">
        <ele>727.86</ele>
        <time>2014-10-21T09:08:08Z</time>
      </trkpt>
      <trkpt lat="44.43774" lon="5.70719">
        <ele>730.26</ele>
        <time>2014-10-21T09:08:21Z</time>
      </trkpt>
      <trkpt lat="44.43775" lon="5.70716">
        <ele>731.7</ele>
        <time>2014-10-21T09:08:35Z</time>
      </trkpt>
      <trkpt lat="44.43787" lon="5.70705">
        <ele>733.62</ele>
        <time>2014-10-21T09:08:49Z</time>
      </trkpt>
      <trkpt lat="44.43793" lon="5.70695">
        <ele>736.03</ele>
        <time>2014-10-21T09:09:02Z</time>
      </trkpt>
      <trkpt lat="44.43802" lon="5.70685">
        <ele>738.43</ele>
        <time>2014-10-21T09:09:18Z</time>
      </trkpt>
      <trkpt lat="44.43806" lon="5.70677">
        <ele>740.83</ele>
        <time>2014-10-21T09:09:30Z</time>
      </trkpt>
      <trkpt lat="44.43814" lon="5.70671">
        <ele>743.24</ele>
        <time>2014-10-21T09:09:43Z</time>
      </trkpt>
      <trkpt lat="44.43821" lon="5.70663">
        <ele>745.64</ele>
        <time>2014-10-21T09:09:56Z</time>
      </trkpt>
      <trkpt lat="44.43822" lon="5.70657">
        <ele>746.12</ele>
        <time>2014-10-21T09:10:02Z</time>
      </trkpt>
      <trkpt lat="44.43828" lon="5.7065">
        <ele>747.56</ele>
        <time>2014-10-21T09:10:12Z</time>
      </trkpt>
      <trkpt lat="44.43832" lon="5.70636">
        <ele>748.52</ele>
        <time>2014-10-21T09:10:26Z</time>
      </trkpt>
      <trkpt lat="44.43835" lon="5.70618">
        <ele>749.49</ele>
        <time>2014-10-21T09:10:40Z</time>
      </trkpt>
      <trkpt lat="44.43838" lon="5.70605">
        <ele>751.41</ele>
        <time>2014-10-21T09:10:54Z</time>
      </trkpt>
      <trkpt lat="44.4384" lon="5.70594">
        <ele>754.29</ele>
        <time>2014-10-21T09:11:08Z</time>
      </trkpt>
      <trkpt lat="44.43844" lon="5.70584">
        <ele>756.21</ele>
        <time>2014-10-21T09:11:22Z</time>
      </trkpt>
      <trkpt lat="44.43848" lon="5.7057">
        <ele>758.62</ele>
        <time>2014-10-21T09:11:37Z</time>
      </trkpt>
      <trkpt lat="44.43852" lon="5.70563">
        <ele>760.06</ele>
        <time>2014-10-21T09:11:53Z</time>
      </trkpt>
      <trkpt lat="44.43853" lon="5.70562">
        <ele>759.58</ele>
        <time>2014-10-21T09:11:55Z</time>
      </trkpt>
      <trkpt lat="44.43856" lon="5.70545">
        <ele>761.5</ele>
        <time>2014-10-21T09:12:09Z</time>
      </trkpt>
      <trkpt lat="44.43858" lon="5.70528">
        <ele>763.42</ele>
        <time>2014-10-21T09:12:24Z</time>
      </trkpt>
      <trkpt lat="44.43863" lon="5.70518">
        <ele>766.31</ele>
        <time>2014-10-21T09:12:40Z</time>
      </trkpt>
      <trkpt lat="44.43865" lon="5.70504">
        <ele>769.19</ele>
        <time>2014-10-21T09:12:57Z</time>
      </trkpt>
      <trkpt lat="44.43865" lon="5.70495">
        <ele>771.11</ele>
        <time>2014-10-21T09:13:08Z</time>
      </trkpt>
      <trkpt lat="44.43869" lon="5.70482">
        <ele>774</ele>
        <time>2014-10-21T09:13:22Z</time>
      </trkpt>
      <trkpt lat="44.43873" lon="5.70468">
        <ele>775.92</ele>
        <time>2014-10-21T09:13:35Z</time>
      </trkpt>
      <trkpt lat="44.43875" lon="5.7046">
        <ele>777.84</ele>
        <time>2014-10-21T09:13:51Z</time>
      </trkpt>
      <trkpt lat="44.43878" lon="5.70443">
        <ele>779.77</ele>
        <time>2014-10-21T09:14:07Z</time>
      </trkpt>
      <trkpt lat="44.43884" lon="5.70431">
        <ele>781.69</ele>
        <time>2014-10-21T09:14:20Z</time>
      </trkpt>
      <trkpt lat="44.43891" lon="5.70418">
        <ele>783.61</ele>
        <time>2014-10-21T09:14:34Z</time>
      </trkpt>
      <trkpt lat="44.43897" lon="5.70405">
        <ele>786.02</ele>
        <time>2014-10-21T09:14:47Z</time>
      </trkpt>
      <trkpt lat="44.43903" lon="5.70389">
        <ele>786.98</ele>
        <time>2014-10-21T09:15:01Z</time>
      </trkpt>
      <trkpt lat="44.43909" lon="5.70375">
        <ele>787.94</ele>
        <time>2014-10-21T09:15:13Z</time>
      </trkpt>
      <trkpt lat="44.43914" lon="5.70362">
        <ele>788.9</ele>
        <time>2014-10-21T09:15:26Z</time>
      </trkpt>
      <trkpt lat="44.43919" lon="5.70354">
        <ele>789.86</ele>
        <time>2014-10-21T09:15:38Z</time>
      </trkpt>
      <trkpt lat="44.43931" lon="5.70341">
        <ele>788.9</ele>
        <time>2014-10-21T09:15:54Z</time>
      </trkpt>
      <trkpt lat="44.43936" lon="5.70336">
        <ele>787.94</ele>
        <time>2014-10-21T09:16:05Z</time>
      </trkpt>
      <trkpt lat="44.43937" lon="5.70338">
        <ele>787.94</ele>
        <time>2014-10-21T09:16:08Z</time>
      </trkpt>
      <trkpt lat="44.43944" lon="5.70322">
        <ele>786.02</ele>
        <time>2014-10-21T09:16:21Z</time>
      </trkpt>
      <trkpt lat="44.4395" lon="5.7031">
        <ele>786.02</ele>
        <time>2014-10-21T09:16:32Z</time>
      </trkpt>
      <trkpt lat="44.43954" lon="5.703">
        <ele>785.05</ele>
        <time>2014-10-21T09:16:39Z</time>
      </trkpt>
      <trkpt lat="44.43962" lon="5.70288">
        <ele>783.13</ele>
        <time>2014-10-21T09:16:53Z</time>
      </trkpt>
      <trkpt lat="44.43973" lon="5.70289">
        <ele>784.09</ele>
        <time>2014-10-21T09:17:09Z</time>
      </trkpt>
      <trkpt lat="44.43998" lon="5.70292">
        <ele>786.98</ele>
        <time>2014-10-21T09:17:26Z</time>
      </trkpt>
      <trkpt lat="44.44017" lon="5.70286">
        <ele>788.9</ele>
        <time>2014-10-21T09:17:46Z</time>
      </trkpt>
      <trkpt lat="44.4402" lon="5.70285">
        <ele>789.38</ele>
        <time>2014-10-21T09:17:50Z</time>
      </trkpt>
      <trkpt lat="44.44022" lon="5.70285">
        <ele>789.86</ele>
        <time>2014-10-21T09:17:52Z</time>
      </trkpt>
      <trkpt lat="44.44034" lon="5.70284">
        <ele>791.78</ele>
        <time>2014-10-21T09:18:08Z</time>
      </trkpt>
      <trkpt lat="44.44043" lon="5.70286">
        <ele>794.67</ele>
        <time>2014-10-21T09:18:23Z</time>
      </trkpt>
      <trkpt lat="44.44051" lon="5.70283">
        <ele>796.59</ele>
        <time>2014-10-21T09:18:38Z</time>
      </trkpt>
      <trkpt lat="44.44059" lon="5.70282">
        <ele>798.03</ele>
        <time>2014-10-21T09:18:51Z</time>
      </trkpt>
      <trkpt lat="44.44069" lon="5.70278">
        <ele>800.44</ele>
        <time>2014-10-21T09:19:05Z</time>
      </trkpt>
      <trkpt lat="44.4408" lon="5.70274">
        <ele>801.88</ele>
        <time>2014-10-21T09:19:18Z</time>
      </trkpt>
      <trkpt lat="44.44089" lon="5.70269">
        <ele>803.32</ele>
        <time>2014-10-21T09:19:30Z</time>
      </trkpt>
      <trkpt lat="44.44099" lon="5.7026">
        <ele>804.76</ele>
        <time>2014-10-21T09:19:45Z</time>
      </trkpt>
      <trkpt lat="44.44104" lon="5.70253">
        <ele>805.72</ele>
        <time>2014-10-21T09:19:54Z</time>
      </trkpt>
      <trkpt lat="44.44111" lon="5.70239">
        <ele>805.72</ele>
        <time>2014-10-21T09:20:07Z</time>
      </trkpt>
      <trkpt lat="44.44122" lon="5.70236">
        <ele>809.09</ele>
        <time>2014-10-21T09:20:20Z</time>
      </trkpt>
      <trkpt lat="44.44131" lon="5.70231">
        <ele>810.05</ele>
        <time>2014-10-21T09:20:32Z</time>
      </trkpt>
      <trkpt lat="44.44142" lon="5.70217">
        <ele>810.53</ele>
        <time>2014-10-21T09:20:49Z</time>
      </trkpt>
      <trkpt lat="44.44152" lon="5.70214">
        <ele>811.01</ele>
        <time>2014-10-21T09:21:00Z</time>
      </trkpt>
      <trkpt lat="44.44163" lon="5.70212">
        <ele>812.45</ele>
        <time>2014-10-21T09:21:14Z</time>
      </trkpt>
      <trkpt lat="44.44176" lon="5.70203">
        <ele>813.89</ele>
        <time>2014-10-21T09:21:31Z</time>
      </trkpt>
      <trkpt lat="44.44178" lon="5.70202">
        <ele>813.89</ele>
        <time>2014-10-21T09:21:33Z</time>
      </trkpt>
      <trkpt lat="44.4419" lon="5.7019">
        <ele>812.45</ele>
        <time>2014-10-21T09:21:49Z</time>
      </trkpt>
      <trkpt lat="44.44192" lon="5.70188">
        <ele>812.93</ele>
        <time>2014-10-21T09:21:51Z</time>
      </trkpt>
      <trkpt lat="44.44207" lon="5.7018">
        <ele>813.41</ele>
        <time>2014-10-21T09:22:07Z</time>
      </trkpt>
      <trkpt lat="44.44217" lon="5.70175">
        <ele>814.37</ele>
        <time>2014-10-21T09:22:18Z</time>
      </trkpt>
      <trkpt lat="44.44233" lon="5.70175">
        <ele>815.82</ele>
        <time>2014-10-21T09:22:34Z</time>
      </trkpt>
      <trkpt lat="44.44248" lon="5.70174">
        <ele>815.34</ele>
        <time>2014-10-21T09:22:49Z</time>
      </trkpt>
      <trkpt lat="44.44269" lon="5.70174">
        <ele>814.37</ele>
        <time>2014-10-21T09:23:11Z</time>
      </trkpt>
      <trkpt lat="44.44279" lon="5.70171">
        <ele>813.89</ele>
        <time>2014-10-21T09:23:20Z</time>
      </trkpt>
      <trkpt lat="44.4429" lon="5.70163">
        <ele>812.93</ele>
        <time>2014-10-21T09:23:31Z</time>
      </trkpt>
      <trkpt lat="44.44291" lon="5.70162">
        <ele>811.97</ele>
        <time>2014-10-21T09:23:33Z</time>
      </trkpt>
      <trkpt lat="44.44301" lon="5.7015">
        <ele>811.49</ele>
        <time>2014-10-21T09:23:46Z</time>
      </trkpt>
      <trkpt lat="44.44304" lon="5.70146">
        <ele>810.05</ele>
        <time>2014-10-21T09:23:50Z</time>
      </trkpt>
      <trkpt lat="44.44304" lon="5.70146">
        <ele>810.05</ele>
        <time>2014-10-21T09:23:51Z</time>
      </trkpt>
      <trkpt lat="44.4431" lon="5.70137">
        <ele>807.64</ele>
        <time>2014-10-21T09:24:01Z</time>
      </trkpt>
      <trkpt lat="44.44315" lon="5.70132">
        <ele>806.68</ele>
        <time>2014-10-21T09:24:06Z</time>
      </trkpt>
      <trkpt lat="44.44321" lon="5.70125">
        <ele>805.72</ele>
        <time>2014-10-21T09:24:20Z</time>
      </trkpt>
      <trkpt lat="44.44322" lon="5.70125">
        <ele>805.24</ele>
        <time>2014-10-21T09:24:21Z</time>
      </trkpt>
      <trkpt lat="44.44326" lon="5.70121">
        <ele>803.8</ele>
        <time>2014-10-21T09:24:25Z</time>
      </trkpt>
      <trkpt lat="44.44327" lon="5.7012">
        <ele>803.32</ele>
        <time>2014-10-21T09:24:26Z</time>
      </trkpt>
      <trkpt lat="44.44336" lon="5.70107">
        <ele>799.95</ele>
        <time>2014-10-21T09:24:39Z</time>
      </trkpt>
      <trkpt lat="44.44337" lon="5.70104">
        <ele>799.47</ele>
        <time>2014-10-21T09:24:41Z</time>
      </trkpt>
      <trkpt lat="44.44338" lon="5.70098">
        <ele>798.51</ele>
        <time>2014-10-21T09:24:47Z</time>
      </trkpt>
      <trkpt lat="44.44344" lon="5.7009">
        <ele>796.59</ele>
        <time>2014-10-21T09:24:58Z</time>
      </trkpt>
      <trkpt lat="44.44345" lon="5.70089">
        <ele>796.11</ele>
        <time>2014-10-21T09:24:59Z</time>
      </trkpt>
      <trkpt lat="44.44351" lon="5.70079">
        <ele>793.22</ele>
        <time>2014-10-21T09:25:07Z</time>
      </trkpt>
      <trkpt lat="44.44348" lon="5.70061">
        <ele>789.86</ele>
        <time>2014-10-21T09:25:19Z</time>
      </trkpt>
      <trkpt lat="44.44343" lon="5.70057">
        <ele>789.38</ele>
        <time>2014-10-21T09:25:21Z</time>
      </trkpt>
      <trkpt lat="44.44329" lon="5.70045">
        <ele>786.5</ele>
        <time>2014-10-21T09:25:33Z</time>
      </trkpt>
      <trkpt lat="44.44329" lon="5.70033">
        <ele>785.53</ele>
        <time>2014-10-21T09:25:42Z</time>
      </trkpt>
      <trkpt lat="44.44332" lon="5.70028">
        <ele>786.02</ele>
        <time>2014-10-21T09:25:46Z</time>
      </trkpt>
      <trkpt lat="44.44334" lon="5.70026">
        <ele>786.02</ele>
        <time>2014-10-21T09:25:48Z</time>
      </trkpt>
      <trkpt lat="44.4434" lon="5.70017">
        <ele>787.94</ele>
        <time>2014-10-21T09:25:59Z</time>
      </trkpt>
      <trkpt lat="44.44341" lon="5.70017">
        <ele>787.94</ele>
        <time>2014-10-21T09:26:00Z</time>
      </trkpt>
      <trkpt lat="44.44344" lon="5.70009">
        <ele>790.34</ele>
        <time>2014-10-21T09:26:13Z</time>
      </trkpt>
      <trkpt lat="44.4435" lon="5.70004">
        <ele>792.26</ele>
        <time>2014-10-21T09:26:25Z</time>
      </trkpt>
      <trkpt lat="44.44352" lon="5.7">
        <ele>793.22</ele>
        <time>2014-10-21T09:26:30Z</time>
      </trkpt>
      <trkpt lat="44.44358" lon="5.69992">
        <ele>794.67</ele>
        <time>2014-10-21T09:26:41Z</time>
      </trkpt>
      <trkpt lat="44.44364" lon="5.69982">
        <ele>796.59</ele>
        <time>2014-10-21T09:26:55Z</time>
      </trkpt>
      <trkpt lat="44.44367" lon="5.69974">
        <ele>797.07</ele>
        <time>2014-10-21T09:27:06Z</time>
      </trkpt>
      <trkpt lat="44.44373" lon="5.69964">
        <ele>798.03</ele>
        <time>2014-10-21T09:27:17Z</time>
      </trkpt>
      <trkpt lat="44.44378" lon="5.69951">
        <ele>798.51</ele>
        <time>2014-10-21T09:27:30Z</time>
      </trkpt>
      <trkpt lat="44.44381" lon="5.69948">
        <ele>799.47</ele>
        <time>2014-10-21T09:27:36Z</time>
      </trkpt>
      <trkpt lat="44.44389" lon="5.69937">
        <ele>800.92</ele>
        <time>2014-10-21T09:27:50Z</time>
      </trkpt>
      <trkpt lat="44.44397" lon="5.69924">
        <ele>802.84</ele>
        <time>2014-10-21T09:28:07Z</time>
      </trkpt>
      <trkpt lat="44.44404" lon="5.69912">
        <ele>804.28</ele>
        <time>2014-10-21T09:28:20Z</time>
      </trkpt>
      <trkpt lat="44.44406" lon="5.69911">
        <ele>804.28</ele>
        <time>2014-10-21T09:28:22Z</time>
      </trkpt>
      <trkpt lat="44.44413" lon="5.69896">
        <ele>806.2</ele>
        <time>2014-10-21T09:28:39Z</time>
      </trkpt>
      <trkpt lat="44.44417" lon="5.69888">
        <ele>807.64</ele>
        <time>2014-10-21T09:28:47Z</time>
      </trkpt>
      <trkpt lat="44.44422" lon="5.69877">
        <ele>810.05</ele>
        <time>2014-10-21T09:29:00Z</time>
      </trkpt>
      <trkpt lat="44.44426" lon="5.69868">
        <ele>811.01</ele>
        <time>2014-10-21T09:29:14Z</time>
      </trkpt>
      <trkpt lat="44.4443" lon="5.6986">
        <ele>812.93</ele>
        <time>2014-10-21T09:29:29Z</time>
      </trkpt>
      <trkpt lat="44.44443" lon="5.69851">
        <ele>815.34</ele>
        <time>2014-10-21T09:29:46Z</time>
      </trkpt>
      <trkpt lat="44.4445" lon="5.69839">
        <ele>816.3</ele>
        <time>2014-10-21T09:30:01Z</time>
      </trkpt>
      <trkpt lat="44.44461" lon="5.69832">
        <ele>818.22</ele>
        <time>2014-10-21T09:30:17Z</time>
      </trkpt>
      <trkpt lat="44.44473" lon="5.69824">
        <ele>821.1</ele>
        <time>2014-10-21T09:30:33Z</time>
      </trkpt>
      <trkpt lat="44.4448" lon="5.69811">
        <ele>823.03</ele>
        <time>2014-10-21T09:30:50Z</time>
      </trkpt>
      <trkpt lat="44.44492" lon="5.69808">
        <ele>824.47</ele>
        <time>2014-10-21T09:31:07Z</time>
      </trkpt>
      <trkpt lat="44.44504" lon="5.69804">
        <ele>826.39</ele>
        <time>2014-10-21T09:31:23Z</time>
      </trkpt>
      <trkpt lat="44.44512" lon="5.69795">
        <ele>828.31</ele>
        <time>2014-10-21T09:31:37Z</time>
      </trkpt>
      <trkpt lat="44.44524" lon="5.69792">
        <ele>831.2</ele>
        <time>2014-10-21T09:31:55Z</time>
      </trkpt>
      <trkpt lat="44.44523" lon="5.6979">
        <ele>830.72</ele>
        <time>2014-10-21T09:31:56Z</time>
      </trkpt>
      <trkpt lat="44.44521" lon="5.69788">
        <ele>831.2</ele>
        <time>2014-10-21T09:31:57Z</time>
      </trkpt>
      <trkpt lat="44.4452" lon="5.69786">
        <ele>831.2</ele>
        <time>2014-10-21T09:31:58Z</time>
      </trkpt>
      <trkpt lat="44.44526" lon="5.69782">
        <ele>833.12</ele>
        <time>2014-10-21T09:32:09Z</time>
      </trkpt>
      <trkpt lat="44.44536" lon="5.69784">
        <ele>834.08</ele>
        <time>2014-10-21T09:32:24Z</time>
      </trkpt>
      <trkpt lat="44.44538" lon="5.69778">
        <ele>834.08</ele>
        <time>2014-10-21T09:32:41Z</time>
      </trkpt>
      <trkpt lat="44.44539" lon="5.69772">
        <ele>834.08</ele>
        <time>2014-10-21T09:32:47Z</time>
      </trkpt>
      <trkpt lat="44.44545" lon="5.69761">
        <ele>834.56</ele>
        <time>2014-10-21T09:32:59Z</time>
      </trkpt>
      <trkpt lat="44.44546" lon="5.69748">
        <ele>836</ele>
        <time>2014-10-21T09:33:12Z</time>
      </trkpt>
      <trkpt lat="44.44548" lon="5.69736">
        <ele>836</ele>
        <time>2014-10-21T09:33:24Z</time>
      </trkpt>
      <trkpt lat="44.44544" lon="5.69726">
        <ele>836.48</ele>
        <time>2014-10-21T09:33:39Z</time>
      </trkpt>
      <trkpt lat="44.44543" lon="5.69725">
        <ele>836.48</ele>
        <time>2014-10-21T09:33:40Z</time>
      </trkpt>
      <trkpt lat="44.44526" lon="5.69704">
        <ele>838.41</ele>
        <time>2014-10-21T09:33:59Z</time>
      </trkpt>
      <trkpt lat="44.44518" lon="5.69685">
        <ele>839.37</ele>
        <time>2014-10-21T09:34:14Z</time>
      </trkpt>
      <trkpt lat="44.44512" lon="5.69669">
        <ele>840.33</ele>
        <time>2014-10-21T09:34:29Z</time>
      </trkpt>
      <trkpt lat="44.44495" lon="5.69656">
        <ele>841.29</ele>
        <time>2014-10-21T09:34:49Z</time>
      </trkpt>
      <trkpt lat="44.44495" lon="5.69639">
        <ele>841.77</ele>
        <time>2014-10-21T09:35:00Z</time>
      </trkpt>
      <trkpt lat="44.44498" lon="5.69625">
        <ele>841.77</ele>
        <time>2014-10-21T09:35:11Z</time>
      </trkpt>
      <trkpt lat="44.44501" lon="5.6961">
        <ele>842.25</ele>
        <time>2014-10-21T09:35:23Z</time>
      </trkpt>
      <trkpt lat="44.44498" lon="5.6959">
        <ele>842.25</ele>
        <time>2014-10-21T09:35:38Z</time>
      </trkpt>
      <trkpt lat="44.44502" lon="5.69568">
        <ele>842.73</ele>
        <time>2014-10-21T09:35:53Z</time>
      </trkpt>
      <trkpt lat="44.44503" lon="5.69553">
        <ele>843.21</ele>
        <time>2014-10-21T09:36:05Z</time>
      </trkpt>
      <trkpt lat="44.44503" lon="5.69539">
        <ele>842.73</ele>
        <time>2014-10-21T09:36:15Z</time>
      </trkpt>
      <trkpt lat="44.44504" lon="5.69528">
        <ele>843.21</ele>
        <time>2014-10-21T09:36:23Z</time>
      </trkpt>
      <trkpt lat="44.44497" lon="5.69509">
        <ele>844.18</ele>
        <time>2014-10-21T09:36:39Z</time>
      </trkpt>
      <trkpt lat="44.44491" lon="5.695">
        <ele>845.14</ele>
        <time>2014-10-21T09:36:57Z</time>
      </trkpt>
      <trkpt lat="44.44487" lon="5.69482">
        <ele>847.54</ele>
        <time>2014-10-21T09:37:13Z</time>
      </trkpt>
      <trkpt lat="44.44485" lon="5.69468">
        <ele>848.5</ele>
        <time>2014-10-21T09:37:28Z</time>
      </trkpt>
      <trkpt lat="44.44489" lon="5.69457">
        <ele>849.46</ele>
        <time>2014-10-21T09:37:40Z</time>
      </trkpt>
      <trkpt lat="44.44496" lon="5.69453">
        <ele>848.5</ele>
        <time>2014-10-21T09:37:49Z</time>
      </trkpt>
      <trkpt lat="44.44497" lon="5.69452">
        <ele>848.5</ele>
        <time>2014-10-21T09:37:50Z</time>
      </trkpt>
      <trkpt lat="44.44499" lon="5.69452">
        <ele>848.5</ele>
        <time>2014-10-21T09:37:51Z</time>
      </trkpt>
      <trkpt lat="44.44504" lon="5.6945">
        <ele>848.02</ele>
        <time>2014-10-21T09:37:57Z</time>
      </trkpt>
      <trkpt lat="44.44509" lon="5.69446">
        <ele>848.02</ele>
        <time>2014-10-21T09:38:03Z</time>
      </trkpt>
      <trkpt lat="44.44513" lon="5.69436">
        <ele>849.94</ele>
        <time>2014-10-21T09:38:16Z</time>
      </trkpt>
      <trkpt lat="44.44515" lon="5.69426">
        <ele>852.83</ele>
        <time>2014-10-21T09:38:28Z</time>
      </trkpt>
      <trkpt lat="44.4452" lon="5.6941">
        <ele>854.27</ele>
        <time>2014-10-21T09:38:45Z</time>
      </trkpt>
      <trkpt lat="44.44526" lon="5.69402">
        <ele>856.19</ele>
        <time>2014-10-21T09:39:00Z</time>
      </trkpt>
      <trkpt lat="44.44533" lon="5.69394">
        <ele>859.08</ele>
        <time>2014-10-21T09:39:13Z</time>
      </trkpt>
      <trkpt lat="44.44537" lon="5.69391">
        <ele>859.08</ele>
        <time>2014-10-21T09:39:29Z</time>
      </trkpt>
      <trkpt lat="44.44541" lon="5.69386">
        <ele>860.04</ele>
        <time>2014-10-21T09:39:45Z</time>
      </trkpt>
      <trkpt lat="44.44543" lon="5.69383">
        <ele>860.52</ele>
        <time>2014-10-21T09:40:01Z</time>
      </trkpt>
      <trkpt lat="44.44544" lon="5.69382">
        <ele>860.52</ele>
        <time>2014-10-21T09:40:19Z</time>
      </trkpt>
      <trkpt lat="44.44554" lon="5.69369">
        <ele>861</ele>
        <time>2014-10-21T09:40:33Z</time>
      </trkpt>
      <trkpt lat="44.4456" lon="5.69363">
        <ele>861</ele>
        <time>2014-10-21T09:40:40Z</time>
      </trkpt>
      <trkpt lat="44.44563" lon="5.6935">
        <ele>861.96</ele>
        <time>2014-10-21T09:40:52Z</time>
      </trkpt>
      <trkpt lat="44.44564" lon="5.69342">
        <ele>863.4</ele>
        <time>2014-10-21T09:41:06Z</time>
      </trkpt>
      <trkpt lat="44.44566" lon="5.69331">
        <ele>866.29</ele>
        <time>2014-10-21T09:41:22Z</time>
      </trkpt>
      <trkpt lat="44.44568" lon="5.69319">
        <ele>868.21</ele>
        <time>2014-10-21T09:41:37Z</time>
      </trkpt>
      <trkpt lat="44.44569" lon="5.69313">
        <ele>869.65</ele>
        <time>2014-10-21T09:41:55Z</time>
      </trkpt>
      <trkpt lat="44.44561" lon="5.69294">
        <ele>871.09</ele>
        <time>2014-10-21T09:42:11Z</time>
      </trkpt>
      <trkpt lat="44.4456" lon="5.69288">
        <ele>872.05</ele>
        <time>2014-10-21T09:42:15Z</time>
      </trkpt>
      <trkpt lat="44.44559" lon="5.69283">
        <ele>871.09</ele>
        <time>2014-10-21T09:42:19Z</time>
      </trkpt>
      <trkpt lat="44.44559" lon="5.69257">
        <ele>872.53</ele>
        <time>2014-10-21T09:42:37Z</time>
      </trkpt>
      <trkpt lat="44.44559" lon="5.69238">
        <ele>873.01</ele>
        <time>2014-10-21T09:42:52Z</time>
      </trkpt>
      <trkpt lat="44.44556" lon="5.69212">
        <ele>873.5</ele>
        <time>2014-10-21T09:43:10Z</time>
      </trkpt>
      <trkpt lat="44.44555" lon="5.69191">
        <ele>873.01</ele>
        <time>2014-10-21T09:43:27Z</time>
      </trkpt>
      <trkpt lat="44.44551" lon="5.69172">
        <ele>872.05</ele>
        <time>2014-10-21T09:43:42Z</time>
      </trkpt>
      <trkpt lat="44.4455" lon="5.69151">
        <ele>873.98</ele>
        <time>2014-10-21T09:43:58Z</time>
      </trkpt>
      <trkpt lat="44.44551" lon="5.69148">
        <ele>874.46</ele>
        <time>2014-10-21T09:44:01Z</time>
      </trkpt>
      <trkpt lat="44.44563" lon="5.69132">
        <ele>873.5</ele>
        <time>2014-10-21T09:44:16Z</time>
      </trkpt>
      <trkpt lat="44.44572" lon="5.69124">
        <ele>872.05</ele>
        <time>2014-10-21T09:44:29Z</time>
      </trkpt>
      <trkpt lat="44.44582" lon="5.69107">
        <ele>871.57</ele>
        <time>2014-10-21T09:44:44Z</time>
      </trkpt>
      <trkpt lat="44.44591" lon="5.69098">
        <ele>871.09</ele>
        <time>2014-10-21T09:44:57Z</time>
      </trkpt>
      <trkpt lat="44.44601" lon="5.69089">
        <ele>870.61</ele>
        <time>2014-10-21T09:45:09Z</time>
      </trkpt>
      <trkpt lat="44.44606" lon="5.69086">
        <ele>870.61</ele>
        <time>2014-10-21T09:45:24Z</time>
      </trkpt>
      <trkpt lat="44.4461" lon="5.69082">
        <ele>869.65</ele>
        <time>2014-10-21T09:45:37Z</time>
      </trkpt>
      <trkpt lat="44.44615" lon="5.69077">
        <ele>869.65</ele>
        <time>2014-10-21T09:45:51Z</time>
      </trkpt>
      <trkpt lat="44.44622" lon="5.69073">
        <ele>869.17</ele>
        <time>2014-10-21T09:46:07Z</time>
      </trkpt>
      <trkpt lat="44.44638" lon="5.6906">
        <ele>870.13</ele>
        <time>2014-10-21T09:46:23Z</time>
      </trkpt>
      <trkpt lat="44.44639" lon="5.69059">
        <ele>870.13</ele>
        <time>2014-10-21T09:46:24Z</time>
      </trkpt>
      <trkpt lat="44.4464" lon="5.69058">
        <ele>870.13</ele>
        <time>2014-10-21T09:46:25Z</time>
      </trkpt>
      <trkpt lat="44.44648" lon="5.69043">
        <ele>871.09</ele>
        <time>2014-10-21T09:46:39Z</time>
      </trkpt>
      <trkpt lat="44.44655" lon="5.69027">
        <ele>873.5</ele>
        <time>2014-10-21T09:46:53Z</time>
      </trkpt>
      <trkpt lat="44.44657" lon="5.69023">
        <ele>873.98</ele>
        <time>2014-10-21T09:46:57Z</time>
      </trkpt>
      <trkpt lat="44.44663" lon="5.6901">
        <ele>875.9</ele>
        <time>2014-10-21T09:47:09Z</time>
      </trkpt>
      <trkpt lat="44.44672" lon="5.68994">
        <ele>878.78</ele>
        <time>2014-10-21T09:47:27Z</time>
      </trkpt>
      <trkpt lat="44.44673" lon="5.68993">
        <ele>878.78</ele>
        <time>2014-10-21T09:47:28Z</time>
      </trkpt>
      <trkpt lat="44.44678" lon="5.68978">
        <ele>879.74</ele>
        <time>2014-10-21T09:47:43Z</time>
      </trkpt>
      <trkpt lat="44.44688" lon="5.68958">
        <ele>880.22</ele>
        <time>2014-10-21T09:48:00Z</time>
      </trkpt>
      <trkpt lat="44.44693" lon="5.68942">
        <ele>880.71</ele>
        <time>2014-10-21T09:48:16Z</time>
      </trkpt>
      <trkpt lat="44.44695" lon="5.68928">
        <ele>882.15</ele>
        <time>2014-10-21T09:48:31Z</time>
      </trkpt>
      <trkpt lat="44.4469" lon="5.68916">
        <ele>884.07</ele>
        <time>2014-10-21T09:48:45Z</time>
      </trkpt>
      <trkpt lat="44.44684" lon="5.68901">
        <ele>885.51</ele>
        <time>2014-10-21T09:49:00Z</time>
      </trkpt>
      <trkpt lat="44.44679" lon="5.68884">
        <ele>886.95</ele>
        <time>2014-10-21T09:49:14Z</time>
      </trkpt>
      <trkpt lat="44.44675" lon="5.68869">
        <ele>888.88</ele>
        <time>2014-10-21T09:49:27Z</time>
      </trkpt>
      <trkpt lat="44.44673" lon="5.68855">
        <ele>890.8</ele>
        <time>2014-10-21T09:49:43Z</time>
      </trkpt>
      <trkpt lat="44.44666" lon="5.68834">
        <ele>893.2</ele>
        <time>2014-10-21T09:50:00Z</time>
      </trkpt>
      <trkpt lat="44.44667" lon="5.68814">
        <ele>895.61</ele>
        <time>2014-10-21T09:50:17Z</time>
      </trkpt>
      <trkpt lat="44.44665" lon="5.68794">
        <ele>897.53</ele>
        <time>2014-10-21T09:50:33Z</time>
      </trkpt>
      <trkpt lat="44.44663" lon="5.68775">
        <ele>898.49</ele>
        <time>2014-10-21T09:50:48Z</time>
      </trkpt>
      <trkpt lat="44.44661" lon="5.68753">
        <ele>899.93</ele>
        <time>2014-10-21T09:51:05Z</time>
      </trkpt>
      <trkpt lat="44.4466" lon="5.68732">
        <ele>902.33</ele>
        <time>2014-10-21T09:51:20Z</time>
      </trkpt>
      <trkpt lat="44.4466" lon="5.68721">
        <ele>903.3</ele>
        <time>2014-10-21T09:51:34Z</time>
      </trkpt>
      <trkpt lat="44.4466" lon="5.68716">
        <ele>902.82</ele>
        <time>2014-10-21T09:51:50Z</time>
      </trkpt>
      <trkpt lat="44.44666" lon="5.68704">
        <ele>903.78</ele>
        <time>2014-10-21T09:52:03Z</time>
      </trkpt>
      <trkpt lat="44.44674" lon="5.68697">
        <ele>904.26</ele>
        <time>2014-10-21T09:52:15Z</time>
      </trkpt>
      <trkpt lat="44.44686" lon="5.68692">
        <ele>904.26</ele>
        <time>2014-10-21T09:52:29Z</time>
      </trkpt>
      <trkpt lat="44.44692" lon="5.68687">
        <ele>905.22</ele>
        <time>2014-10-21T09:52:35Z</time>
      </trkpt>
      <trkpt lat="44.44701" lon="5.68674">
        <ele>904.26</ele>
        <time>2014-10-21T09:52:47Z</time>
      </trkpt>
      <trkpt lat="44.44711" lon="5.68662">
        <ele>903.78</ele>
        <time>2014-10-21T09:53:01Z</time>
      </trkpt>
      <trkpt lat="44.44724" lon="5.68645">
        <ele>903.78</ele>
        <time>2014-10-21T09:53:16Z</time>
      </trkpt>
      <trkpt lat="44.44727" lon="5.68644">
        <ele>903.3</ele>
        <time>2014-10-21T09:53:19Z</time>
      </trkpt>
      <trkpt lat="44.44734" lon="5.6864">
        <ele>903.3</ele>
        <time>2014-10-21T09:53:27Z</time>
      </trkpt>
      <trkpt lat="44.44745" lon="5.68628">
        <ele>901.85</ele>
        <time>2014-10-21T09:53:41Z</time>
      </trkpt>
      <trkpt lat="44.44754" lon="5.68614">
        <ele>900.41</ele>
        <time>2014-10-21T09:53:54Z</time>
      </trkpt>
      <trkpt lat="44.44768" lon="5.686">
        <ele>898.97</ele>
        <time>2014-10-21T09:54:10Z</time>
      </trkpt>
      <trkpt lat="44.44781" lon="5.68592">
        <ele>896.57</ele>
        <time>2014-10-21T09:54:24Z</time>
      </trkpt>
      <trkpt lat="44.44784" lon="5.68589">
        <ele>897.05</ele>
        <time>2014-10-21T09:54:36Z</time>
      </trkpt>
      <trkpt lat="44.44792" lon="5.68584">
        <ele>894.64</ele>
        <time>2014-10-21T09:54:49Z</time>
      </trkpt>
      <trkpt lat="44.448" lon="5.68575">
        <ele>894.64</ele>
        <time>2014-10-21T09:55:02Z</time>
      </trkpt>
      <trkpt lat="44.44805" lon="5.68563">
        <ele>894.64</ele>
        <time>2014-10-21T09:55:16Z</time>
      </trkpt>
      <trkpt lat="44.4481" lon="5.68552">
        <ele>895.61</ele>
        <time>2014-10-21T09:55:29Z</time>
      </trkpt>
      <trkpt lat="44.44817" lon="5.68546">
        <ele>898.49</ele>
        <time>2014-10-21T09:55:42Z</time>
      </trkpt>
      <trkpt lat="44.44819" lon="5.68545">
        <ele>899.45</ele>
        <time>2014-10-21T09:55:54Z</time>
      </trkpt>
      <trkpt lat="44.44822" lon="5.68534">
        <ele>899.93</ele>
        <time>2014-10-21T09:56:03Z</time>
      </trkpt>
      <trkpt lat="44.44823" lon="5.68533">
        <ele>899.93</ele>
        <time>2014-10-21T09:56:04Z</time>
      </trkpt>
      <trkpt lat="44.44829" lon="5.68532">
        <ele>898.97</ele>
        <time>2014-10-21T09:56:15Z</time>
      </trkpt>
      <trkpt lat="44.44834" lon="5.68527">
        <ele>898.01</ele>
        <time>2014-10-21T09:56:25Z</time>
      </trkpt>
      <trkpt lat="44.44835" lon="5.68524">
        <ele>898.49</ele>
        <time>2014-10-21T09:56:28Z</time>
      </trkpt>
      <trkpt lat="44.44837" lon="5.6852">
        <ele>898.49</ele>
        <time>2014-10-21T09:56:31Z</time>
      </trkpt>
      <trkpt lat="44.44841" lon="5.68514">
        <ele>899.45</ele>
        <time>2014-10-21T09:56:38Z</time>
      </trkpt>
      <trkpt lat="44.44845" lon="5.68507">
        <ele>899.93</ele>
        <time>2014-10-21T09:56:44Z</time>
      </trkpt>
      <trkpt lat="44.44846" lon="5.68506">
        <ele>899.93</ele>
        <time>2014-10-21T09:56:45Z</time>
      </trkpt>
      <trkpt lat="44.44849" lon="5.68502">
        <ele>899.93</ele>
        <time>2014-10-21T09:56:56Z</time>
      </trkpt>
      <trkpt lat="44.44852" lon="5.68499">
        <ele>899.93</ele>
        <time>2014-10-21T09:57:06Z</time>
      </trkpt>
      <trkpt lat="44.44858" lon="5.6849">
        <ele>900.41</ele>
        <time>2014-10-21T09:57:14Z</time>
      </trkpt>
      <trkpt lat="44.4486" lon="5.68489">
        <ele>900.41</ele>
        <time>2014-10-21T09:57:15Z</time>
      </trkpt>
      <trkpt lat="44.44868" lon="5.68478">
        <ele>900.89</ele>
        <time>2014-10-21T09:57:27Z</time>
      </trkpt>
      <trkpt lat="44.44872" lon="5.68469">
        <ele>901.85</ele>
        <time>2014-10-21T09:57:40Z</time>
      </trkpt>
      <trkpt lat="44.44876" lon="5.68457">
        <ele>903.78</ele>
        <time>2014-10-21T09:57:51Z</time>
      </trkpt>
      <trkpt lat="44.44876" lon="5.68455">
        <ele>903.3</ele>
        <time>2014-10-21T09:58:03Z</time>
      </trkpt>
      <trkpt lat="44.44878" lon="5.68451">
        <ele>903.78</ele>
        <time>2014-10-21T09:58:07Z</time>
      </trkpt>
      <trkpt lat="44.44881" lon="5.68443">
        <ele>904.26</ele>
        <time>2014-10-21T09:58:14Z</time>
      </trkpt>
      <trkpt lat="44.44882" lon="5.68442">
        <ele>904.26</ele>
        <time>2014-10-21T09:58:15Z</time>
      </trkpt>
      <trkpt lat="44.44888" lon="5.6843">
        <ele>903.78</ele>
        <time>2014-10-21T09:58:25Z</time>
      </trkpt>
      <trkpt lat="44.44889" lon="5.68424">
        <ele>904.26</ele>
        <time>2014-10-21T09:58:30Z</time>
      </trkpt>
      <trkpt lat="44.44892" lon="5.68414">
        <ele>905.7</ele>
        <time>2014-10-21T09:58:38Z</time>
      </trkpt>
      <trkpt lat="44.44894" lon="5.68408">
        <ele>906.18</ele>
        <time>2014-10-21T09:58:50Z</time>
      </trkpt>
      <trkpt lat="44.44895" lon="5.68407">
        <ele>906.18</ele>
        <time>2014-10-21T09:58:51Z</time>
      </trkpt>
      <trkpt lat="44.44897" lon="5.68397">
        <ele>907.14</ele>
        <time>2014-10-21T09:58:59Z</time>
      </trkpt>
      <trkpt lat="44.44896" lon="5.68381">
        <ele>908.1</ele>
        <time>2014-10-21T09:59:10Z</time>
      </trkpt>
      <trkpt lat="44.44896" lon="5.68372">
        <ele>910.99</ele>
        <time>2014-10-21T09:59:22Z</time>
      </trkpt>
      <trkpt lat="44.44893" lon="5.68371">
        <ele>911.47</ele>
        <time>2014-10-21T09:59:34Z</time>
      </trkpt>
      <trkpt lat="44.44893" lon="5.68372">
        <ele>910.03</ele>
        <time>2014-10-21T09:59:54Z</time>
      </trkpt>
      <trkpt lat="44.44891" lon="5.68369">
        <ele>910.51</ele>
        <time>2014-10-21T10:00:17Z</time>
      </trkpt>
      <trkpt lat="44.44886" lon="5.68361">
        <ele>911.95</ele>
        <time>2014-10-21T10:00:29Z</time>
      </trkpt>
      <trkpt lat="44.44884" lon="5.68361">
        <ele>912.43</ele>
        <time>2014-10-21T10:00:36Z</time>
      </trkpt>
      <trkpt lat="44.44874" lon="5.68362">
        <ele>913.87</ele>
        <time>2014-10-21T10:00:47Z</time>
      </trkpt>
      <trkpt lat="44.44863" lon="5.68365">
        <ele>915.79</ele>
        <time>2014-10-21T10:01:01Z</time>
      </trkpt>
      <trkpt lat="44.44856" lon="5.68369">
        <ele>918.68</ele>
        <time>2014-10-21T10:01:14Z</time>
      </trkpt>
      <trkpt lat="44.44853" lon="5.6837">
        <ele>919.16</ele>
        <time>2014-10-21T10:01:17Z</time>
      </trkpt>
      <trkpt lat="44.44849" lon="5.68379">
        <ele>921.56</ele>
        <time>2014-10-21T10:01:30Z</time>
      </trkpt>
      <trkpt lat="44.44848" lon="5.68384">
        <ele>922.04</ele>
        <time>2014-10-21T10:01:35Z</time>
      </trkpt>
      <trkpt lat="44.44841" lon="5.68395">
        <ele>923.48</ele>
        <time>2014-10-21T10:01:47Z</time>
      </trkpt>
      <trkpt lat="44.4484" lon="5.68396">
        <ele>923.96</ele>
        <time>2014-10-21T10:01:48Z</time>
      </trkpt>
      <trkpt lat="44.44837" lon="5.68404">
        <ele>925.41</ele>
        <time>2014-10-21T10:01:55Z</time>
      </trkpt>
      <trkpt lat="44.4483" lon="5.68413">
        <ele>926.85</ele>
        <time>2014-10-21T10:02:07Z</time>
      </trkpt>
      <trkpt lat="44.44821" lon="5.68418">
        <ele>928.77</ele>
        <time>2014-10-21T10:02:21Z</time>
      </trkpt>
      <trkpt lat="44.44809" lon="5.6841">
        <ele>929.73</ele>
        <time>2014-10-21T10:02:36Z</time>
      </trkpt>
      <trkpt lat="44.4481" lon="5.68408">
        <ele>930.21</ele>
        <time>2014-10-21T10:02:48Z</time>
      </trkpt>
      <trkpt lat="44.44807" lon="5.6841">
        <ele>930.69</ele>
        <time>2014-10-21T10:03:04Z</time>
      </trkpt>
      <trkpt lat="44.44806" lon="5.68409">
        <ele>930.69</ele>
        <time>2014-10-21T10:03:23Z</time>
      </trkpt>
      <trkpt lat="44.44805" lon="5.6841">
        <ele>930.69</ele>
        <time>2014-10-21T10:03:40Z</time>
      </trkpt>
      <trkpt lat="44.44805" lon="5.68412">
        <ele>931.17</ele>
        <time>2014-10-21T10:04:05Z</time>
      </trkpt>
      <trkpt lat="44.44804" lon="5.68414">
        <ele>931.17</ele>
        <time>2014-10-21T10:04:23Z</time>
      </trkpt>
      <trkpt lat="44.44803" lon="5.68413">
        <ele>931.17</ele>
        <time>2014-10-21T10:04:51Z</time>
      </trkpt>
      <trkpt lat="44.44802" lon="5.68413">
        <ele>932.14</ele>
        <time>2014-10-21T10:05:06Z</time>
      </trkpt>
      <trkpt lat="44.44802" lon="5.68413">
        <ele>932.62</ele>
        <time>2014-10-21T10:05:27Z</time>
      </trkpt>
      <trkpt lat="44.448" lon="5.68414">
        <ele>932.14</ele>
        <time>2014-10-21T10:05:48Z</time>
      </trkpt>
      <trkpt lat="44.44793" lon="5.68411">
        <ele>932.14</ele>
        <time>2014-10-21T10:05:56Z</time>
      </trkpt>
      <trkpt lat="44.44779" lon="5.68406">
        <ele>932.62</ele>
        <time>2014-10-21T10:06:10Z</time>
      </trkpt>
      <trkpt lat="44.44771" lon="5.68419">
        <ele>934.54</ele>
        <time>2014-10-21T10:06:21Z</time>
      </trkpt>
      <trkpt lat="44.44764" lon="5.6843">
        <ele>935.02</ele>
        <time>2014-10-21T10:06:32Z</time>
      </trkpt>
      <trkpt lat="44.44762" lon="5.68443">
        <ele>936.46</ele>
        <time>2014-10-21T10:06:42Z</time>
      </trkpt>
      <trkpt lat="44.44753" lon="5.68459">
        <ele>937.42</ele>
        <time>2014-10-21T10:06:55Z</time>
      </trkpt>
      <trkpt lat="44.44751" lon="5.68462">
        <ele>939.35</ele>
        <time>2014-10-21T10:06:59Z</time>
      </trkpt>
      <trkpt lat="44.44748" lon="5.68467">
        <ele>939.35</ele>
        <time>2014-10-21T10:07:10Z</time>
      </trkpt>
      <trkpt lat="44.44741" lon="5.68476">
        <ele>940.79</ele>
        <time>2014-10-21T10:07:20Z</time>
      </trkpt>
      <trkpt lat="44.44735" lon="5.68481">
        <ele>941.27</ele>
        <time>2014-10-21T10:07:26Z</time>
      </trkpt>
      <trkpt lat="44.44734" lon="5.68481">
        <ele>941.75</ele>
        <time>2014-10-21T10:07:27Z</time>
      </trkpt>
      <trkpt lat="44.44727" lon="5.68489">
        <ele>942.23</ele>
        <time>2014-10-21T10:07:38Z</time>
      </trkpt>
      <trkpt lat="44.44719" lon="5.68496">
        <ele>943.67</ele>
        <time>2014-10-21T10:07:50Z</time>
      </trkpt>
      <trkpt lat="44.44709" lon="5.68503">
        <ele>945.11</ele>
        <time>2014-10-21T10:08:03Z</time>
      </trkpt>
      <trkpt lat="44.44704" lon="5.68506">
        <ele>945.11</ele>
        <time>2014-10-21T10:08:08Z</time>
      </trkpt>
      <trkpt lat="44.44692" lon="5.68511">
        <ele>946.56</ele>
        <time>2014-10-21T10:08:21Z</time>
      </trkpt>
      <trkpt lat="44.44682" lon="5.68515">
        <ele>947.52</ele>
        <time>2014-10-21T10:08:33Z</time>
      </trkpt>
      <trkpt lat="44.44672" lon="5.68521">
        <ele>948</ele>
        <time>2014-10-21T10:08:46Z</time>
      </trkpt>
      <trkpt lat="44.44672" lon="5.68527">
        <ele>948.48</ele>
        <time>2014-10-21T10:09:04Z</time>
      </trkpt>
      <trkpt lat="44.44678" lon="5.68518">
        <ele>947.52</ele>
        <time>2014-10-21T10:09:16Z</time>
      </trkpt>
      <trkpt lat="44.44688" lon="5.68514">
        <ele>946.07</ele>
        <time>2014-10-21T10:09:26Z</time>
      </trkpt>
      <trkpt lat="44.44702" lon="5.68509">
        <ele>944.15</ele>
        <time>2014-10-21T10:09:39Z</time>
      </trkpt>
      <trkpt lat="44.44711" lon="5.685">
        <ele>944.15</ele>
        <time>2014-10-21T10:09:49Z</time>
      </trkpt>
      <trkpt lat="44.44721" lon="5.68496">
        <ele>943.19</ele>
        <time>2014-10-21T10:09:57Z</time>
      </trkpt>
      <trkpt lat="44.44728" lon="5.68489">
        <ele>942.23</ele>
        <time>2014-10-21T10:10:04Z</time>
      </trkpt>
      <trkpt lat="44.44739" lon="5.68476">
        <ele>940.79</ele>
        <time>2014-10-21T10:10:18Z</time>
      </trkpt>
      <trkpt lat="44.44752" lon="5.68461">
        <ele>938.86</ele>
        <time>2014-10-21T10:10:32Z</time>
      </trkpt>
      <trkpt lat="44.44757" lon="5.68454">
        <ele>937.42</ele>
        <time>2014-10-21T10:10:38Z</time>
      </trkpt>
      <trkpt lat="44.44758" lon="5.68453">
        <ele>937.42</ele>
        <time>2014-10-21T10:10:39Z</time>
      </trkpt>
      <trkpt lat="44.44767" lon="5.68433">
        <ele>935.98</ele>
        <time>2014-10-21T10:10:54Z</time>
      </trkpt>
      <trkpt lat="44.44778" lon="5.68419">
        <ele>934.06</ele>
        <time>2014-10-21T10:11:08Z</time>
      </trkpt>
      <trkpt lat="44.44781" lon="5.68412">
        <ele>932.14</ele>
        <time>2014-10-21T10:11:14Z</time>
      </trkpt>
      <trkpt lat="44.44782" lon="5.68412">
        <ele>932.14</ele>
        <time>2014-10-21T10:11:15Z</time>
      </trkpt>
      <trkpt lat="44.44784" lon="5.68411">
        <ele>931.65</ele>
        <time>2014-10-21T10:11:16Z</time>
      </trkpt>
      <trkpt lat="44.44785" lon="5.6841">
        <ele>931.65</ele>
        <time>2014-10-21T10:11:17Z</time>
      </trkpt>
      <trkpt lat="44.44786" lon="5.6841">
        <ele>931.65</ele>
        <time>2014-10-21T10:11:18Z</time>
      </trkpt>
      <trkpt lat="44.44789" lon="5.6841">
        <ele>931.17</ele>
        <time>2014-10-21T10:11:22Z</time>
      </trkpt>
      <trkpt lat="44.4479" lon="5.68411">
        <ele>931.17</ele>
        <time>2014-10-21T10:11:23Z</time>
      </trkpt>
      <trkpt lat="44.44794" lon="5.68411">
        <ele>931.17</ele>
        <time>2014-10-21T10:11:26Z</time>
      </trkpt>
      <trkpt lat="44.448" lon="5.68406">
        <ele>932.14</ele>
        <time>2014-10-21T10:11:36Z</time>
      </trkpt>
      <trkpt lat="44.44799" lon="5.68405">
        <ele>932.62</ele>
        <time>2014-10-21T10:11:37Z</time>
      </trkpt>
      <trkpt lat="44.44798" lon="5.68404">
        <ele>932.62</ele>
        <time>2014-10-21T10:11:38Z</time>
      </trkpt>
      <trkpt lat="44.44798" lon="5.68402">
        <ele>932.14</ele>
        <time>2014-10-21T10:11:39Z</time>
      </trkpt>
      <trkpt lat="44.44797" lon="5.68401">
        <ele>932.14</ele>
        <time>2014-10-21T10:11:40Z</time>
      </trkpt>
      <trkpt lat="44.44794" lon="5.68397">
        <ele>933.58</ele>
        <time>2014-10-21T10:11:43Z</time>
      </trkpt>
      <trkpt lat="44.44789" lon="5.6839">
        <ele>934.54</ele>
        <time>2014-10-21T10:11:50Z</time>
      </trkpt>
      <trkpt lat="44.44778" lon="5.68382">
        <ele>936.46</ele>
        <time>2014-10-21T10:12:02Z</time>
      </trkpt>
      <trkpt lat="44.44771" lon="5.68378">
        <ele>937.42</ele>
        <time>2014-10-21T10:12:17Z</time>
      </trkpt>
      <trkpt lat="44.44771" lon="5.68377">
        <ele>937.42</ele>
        <time>2014-10-21T10:12:18Z</time>
      </trkpt>
      <trkpt lat="44.44769" lon="5.68374">
        <ele>937.9</ele>
        <time>2014-10-21T10:12:21Z</time>
      </trkpt>
      <trkpt lat="44.44768" lon="5.6837">
        <ele>938.38</ele>
        <time>2014-10-21T10:12:25Z</time>
      </trkpt>
      <trkpt lat="44.44766" lon="5.68357">
        <ele>940.79</ele>
        <time>2014-10-21T10:12:37Z</time>
      </trkpt>
      <trkpt lat="44.44766" lon="5.68355">
        <ele>940.79</ele>
        <time>2014-10-21T10:12:39Z</time>
      </trkpt>
      <trkpt lat="44.44766" lon="5.68353">
        <ele>940.79</ele>
        <time>2014-10-21T10:12:40Z</time>
      </trkpt>
      <trkpt lat="44.44761" lon="5.68344">
        <ele>942.71</ele>
        <time>2014-10-21T10:12:50Z</time>
      </trkpt>
      <trkpt lat="44.44755" lon="5.68345">
        <ele>943.19</ele>
        <time>2014-10-21T10:13:02Z</time>
      </trkpt>
      <trkpt lat="44.44744" lon="5.68355">
        <ele>944.63</ele>
        <time>2014-10-21T10:13:14Z</time>
      </trkpt>
      <trkpt lat="44.44742" lon="5.68363">
        <ele>945.11</ele>
        <time>2014-10-21T10:13:20Z</time>
      </trkpt>
      <trkpt lat="44.44739" lon="5.68378">
        <ele>946.56</ele>
        <time>2014-10-21T10:13:32Z</time>
      </trkpt>
      <trkpt lat="44.44735" lon="5.68388">
        <ele>948.48</ele>
        <time>2014-10-21T10:13:43Z</time>
      </trkpt>
      <trkpt lat="44.44731" lon="5.684">
        <ele>951.36</ele>
        <time>2014-10-21T10:13:56Z</time>
      </trkpt>
      <trkpt lat="44.44723" lon="5.68407">
        <ele>954.25</ele>
        <time>2014-10-21T10:14:08Z</time>
      </trkpt>
      <trkpt lat="44.44716" lon="5.6842">
        <ele>956.17</ele>
        <time>2014-10-21T10:14:23Z</time>
      </trkpt>
      <trkpt lat="44.44708" lon="5.68428">
        <ele>958.09</ele>
        <time>2014-10-21T10:14:35Z</time>
      </trkpt>
      <trkpt lat="44.44705" lon="5.68431">
        <ele>960.49</ele>
        <time>2014-10-21T10:14:45Z</time>
      </trkpt>
      <trkpt lat="44.44706" lon="5.68431">
        <ele>959.05</ele>
        <time>2014-10-21T10:14:47Z</time>
      </trkpt>
      <trkpt lat="44.44699" lon="5.6844">
        <ele>960.49</ele>
        <time>2014-10-21T10:15:02Z</time>
      </trkpt>
      <trkpt lat="44.4469" lon="5.68445">
        <ele>963.38</ele>
        <time>2014-10-21T10:15:17Z</time>
      </trkpt>
      <trkpt lat="44.44681" lon="5.68448">
        <ele>966.26</ele>
        <time>2014-10-21T10:15:33Z</time>
      </trkpt>
      <trkpt lat="44.44673" lon="5.68448">
        <ele>968.67</ele>
        <time>2014-10-21T10:15:47Z</time>
      </trkpt>
      <trkpt lat="44.44665" lon="5.68447">
        <ele>971.55</ele>
        <time>2014-10-21T10:16:00Z</time>
      </trkpt>
      <trkpt lat="44.44661" lon="5.68448">
        <ele>972.51</ele>
        <time>2014-10-21T10:16:15Z</time>
      </trkpt>
      <trkpt lat="44.4466" lon="5.68445">
        <ele>973.95</ele>
        <time>2014-10-21T10:16:28Z</time>
      </trkpt>
      <trkpt lat="44.44645" lon="5.68444">
        <ele>975.88</ele>
        <time>2014-10-21T10:16:43Z</time>
      </trkpt>
      <trkpt lat="44.44643" lon="5.68444">
        <ele>977.32</ele>
        <time>2014-10-21T10:16:46Z</time>
      </trkpt>
      <trkpt lat="44.44634" lon="5.68445">
        <ele>978.76</ele>
        <time>2014-10-21T10:16:58Z</time>
      </trkpt>
      <trkpt lat="44.44626" lon="5.68444">
        <ele>981.16</ele>
        <time>2014-10-21T10:17:11Z</time>
      </trkpt>
      <trkpt lat="44.44619" lon="5.68443">
        <ele>982.6</ele>
        <time>2014-10-21T10:17:26Z</time>
      </trkpt>
      <trkpt lat="44.4461" lon="5.68435">
        <ele>985.97</ele>
        <time>2014-10-21T10:17:42Z</time>
      </trkpt>
      <trkpt lat="44.44604" lon="5.68433">
        <ele>988.85</ele>
        <time>2014-10-21T10:17:55Z</time>
      </trkpt>
      <trkpt lat="44.44595" lon="5.6843">
        <ele>991.26</ele>
        <time>2014-10-21T10:18:12Z</time>
      </trkpt>
      <trkpt lat="44.44588" lon="5.68427">
        <ele>994.14</ele>
        <time>2014-10-21T10:18:26Z</time>
      </trkpt>
      <trkpt lat="44.44581" lon="5.68421">
        <ele>997.02</ele>
        <time>2014-10-21T10:18:40Z</time>
      </trkpt>
      <trkpt lat="44.44573" lon="5.68417">
        <ele>999.43</ele>
        <time>2014-10-21T10:18:55Z</time>
      </trkpt>
      <trkpt lat="44.44569" lon="5.68417">
        <ele>1001.35</ele>
        <time>2014-10-21T10:19:09Z</time>
      </trkpt>
      <trkpt lat="44.44572" lon="5.68413">
        <ele>1001.83</ele>
        <time>2014-10-21T10:19:36Z</time>
      </trkpt>
      <trkpt lat="44.44572" lon="5.68412">
        <ele>1001.83</ele>
        <time>2014-10-21T10:20:00Z</time>
      </trkpt>
      <trkpt lat="44.44563" lon="5.68414">
        <ele>1003.75</ele>
        <time>2014-10-21T10:20:25Z</time>
      </trkpt>
      <trkpt lat="44.44551" lon="5.68412">
        <ele>1006.64</ele>
        <time>2014-10-21T10:20:41Z</time>
      </trkpt>
      <trkpt lat="44.44543" lon="5.6841">
        <ele>1010</ele>
        <time>2014-10-21T10:20:55Z</time>
      </trkpt>
      <trkpt lat="44.44535" lon="5.68407">
        <ele>1012.41</ele>
        <time>2014-10-21T10:21:09Z</time>
      </trkpt>
      <trkpt lat="44.44525" lon="5.68406">
        <ele>1015.77</ele>
        <time>2014-10-21T10:21:24Z</time>
      </trkpt>
      <trkpt lat="44.44517" lon="5.68404">
        <ele>1018.17</ele>
        <time>2014-10-21T10:21:37Z</time>
      </trkpt>
      <trkpt lat="44.44513" lon="5.68405">
        <ele>1019.13</ele>
        <time>2014-10-21T10:21:51Z</time>
      </trkpt>
      <trkpt lat="44.44503" lon="5.68402">
        <ele>1022.02</ele>
        <time>2014-10-21T10:22:07Z</time>
      </trkpt>
      <trkpt lat="44.44491" lon="5.68404">
        <ele>1023.46</ele>
        <time>2014-10-21T10:22:21Z</time>
      </trkpt>
      <trkpt lat="44.44479" lon="5.68404">
        <ele>1025.38</ele>
        <time>2014-10-21T10:22:37Z</time>
      </trkpt>
      <trkpt lat="44.4447" lon="5.68403">
        <ele>1026.83</ele>
        <time>2014-10-21T10:22:51Z</time>
      </trkpt>
      <trkpt lat="44.44461" lon="5.68401">
        <ele>1029.71</ele>
        <time>2014-10-21T10:23:08Z</time>
      </trkpt>
      <trkpt lat="44.44461" lon="5.68396">
        <ele>1029.71</ele>
        <time>2014-10-21T10:23:32Z</time>
      </trkpt>
      <trkpt lat="44.44461" lon="5.684">
        <ele>1029.71</ele>
        <time>2014-10-21T10:24:03Z</time>
      </trkpt>
      <trkpt lat="44.44474" lon="5.68401">
        <ele>1026.83</ele>
        <time>2014-10-21T10:24:19Z</time>
      </trkpt>
      <trkpt lat="44.44479" lon="5.68401">
        <ele>1025.38</ele>
        <time>2014-10-21T10:24:33Z</time>
      </trkpt>
      <trkpt lat="44.44489" lon="5.684">
        <ele>1023.46</ele>
        <time>2014-10-21T10:24:48Z</time>
      </trkpt>
      <trkpt lat="44.44493" lon="5.68399">
        <ele>1022.98</ele>
        <time>2014-10-21T10:24:52Z</time>
      </trkpt>
      <trkpt lat="44.44504" lon="5.684">
        <ele>1021.06</ele>
        <time>2014-10-21T10:25:07Z</time>
      </trkpt>
      <trkpt lat="44.44513" lon="5.68404">
        <ele>1018.17</ele>
        <time>2014-10-21T10:25:19Z</time>
      </trkpt>
      <trkpt lat="44.44518" lon="5.68403">
        <ele>1018.17</ele>
        <time>2014-10-21T10:25:42Z</time>
      </trkpt>
      <trkpt lat="44.44515" lon="5.68401">
        <ele>1019.13</ele>
        <time>2014-10-21T10:26:14Z</time>
      </trkpt>
      <trkpt lat="44.445" lon="5.68402">
        <ele>1022.02</ele>
        <time>2014-10-21T10:26:29Z</time>
      </trkpt>
      <trkpt lat="44.44485" lon="5.68403">
        <ele>1023.94</ele>
        <time>2014-10-21T10:26:47Z</time>
      </trkpt>
      <trkpt lat="44.44473" lon="5.68401">
        <ele>1026.34</ele>
        <time>2014-10-21T10:27:03Z</time>
      </trkpt>
      <trkpt lat="44.44463" lon="5.68401">
        <ele>1028.75</ele>
        <time>2014-10-21T10:27:16Z</time>
      </trkpt>
      <trkpt lat="44.44451" lon="5.68398">
        <ele>1031.63</ele>
        <time>2014-10-21T10:27:31Z</time>
      </trkpt>
      <trkpt lat="44.44445" lon="5.6839">
        <ele>1034.04</ele>
        <time>2014-10-21T10:27:47Z</time>
      </trkpt>
      <trkpt lat="44.44447" lon="5.68388">
        <ele>1033.55</ele>
        <time>2014-10-21T10:28:05Z</time>
      </trkpt>
      <trkpt lat="44.44446" lon="5.68392">
        <ele>1034.04</ele>
        <time>2014-10-21T10:28:24Z</time>
      </trkpt>
      <trkpt lat="44.44445" lon="5.68392">
        <ele>1034.04</ele>
        <time>2014-10-21T10:28:40Z</time>
      </trkpt>
      <trkpt lat="44.44445" lon="5.68382">
        <ele>1036.92</ele>
        <time>2014-10-21T10:28:54Z</time>
      </trkpt>
      <trkpt lat="44.44442" lon="5.68374">
        <ele>1039.8</ele>
        <time>2014-10-21T10:29:09Z</time>
      </trkpt>
      <trkpt lat="44.44437" lon="5.68371">
        <ele>1042.21</ele>
        <time>2014-10-21T10:29:26Z</time>
      </trkpt>
      <trkpt lat="44.44435" lon="5.68369">
        <ele>1045.57</ele>
        <time>2014-10-21T10:29:34Z</time>
      </trkpt>
      <trkpt lat="44.44429" lon="5.68365">
        <ele>1046.05</ele>
        <time>2014-10-21T10:29:52Z</time>
      </trkpt>
      <trkpt lat="44.44425" lon="5.68361">
        <ele>1048.45</ele>
        <time>2014-10-21T10:30:07Z</time>
      </trkpt>
      <trkpt lat="44.44421" lon="5.68356">
        <ele>1050.86</ele>
        <time>2014-10-21T10:30:22Z</time>
      </trkpt>
      <trkpt lat="44.44414" lon="5.68353">
        <ele>1053.26</ele>
        <time>2014-10-21T10:30:39Z</time>
      </trkpt>
      <trkpt lat="44.4441" lon="5.68354">
        <ele>1054.7</ele>
        <time>2014-10-21T10:30:50Z</time>
      </trkpt>
      <trkpt lat="44.44407" lon="5.68353">
        <ele>1055.18</ele>
        <time>2014-10-21T10:31:08Z</time>
      </trkpt>
      <trkpt lat="44.44404" lon="5.68356">
        <ele>1055.18</ele>
        <time>2014-10-21T10:31:26Z</time>
      </trkpt>
      <trkpt lat="44.44406" lon="5.68353">
        <ele>1056.15</ele>
        <time>2014-10-21T10:31:54Z</time>
      </trkpt>
      <trkpt lat="44.44408" lon="5.68351">
        <ele>1056.63</ele>
        <time>2014-10-21T10:32:22Z</time>
      </trkpt>
      <trkpt lat="44.44406" lon="5.68369">
        <ele>1053.74</ele>
        <time>2014-10-21T10:32:37Z</time>
      </trkpt>
      <trkpt lat="44.44401" lon="5.6838">
        <ele>1051.82</ele>
        <time>2014-10-21T10:32:48Z</time>
      </trkpt>
      <trkpt lat="44.44398" lon="5.6839">
        <ele>1049.42</ele>
        <time>2014-10-21T10:32:59Z</time>
      </trkpt>
      <trkpt lat="44.44396" lon="5.68397">
        <ele>1048.94</ele>
        <time>2014-10-21T10:33:24Z</time>
      </trkpt>
      <trkpt lat="44.44397" lon="5.68416">
        <ele>1046.05</ele>
        <time>2014-10-21T10:33:39Z</time>
      </trkpt>
      <trkpt lat="44.44394" lon="5.68439">
        <ele>1046.05</ele>
        <time>2014-10-21T10:33:55Z</time>
      </trkpt>
      <trkpt lat="44.44395" lon="5.68466">
        <ele>1047.97</ele>
        <time>2014-10-21T10:34:12Z</time>
      </trkpt>
      <trkpt lat="44.44395" lon="5.68489">
        <ele>1047.49</ele>
        <time>2014-10-21T10:34:28Z</time>
      </trkpt>
      <trkpt lat="44.44397" lon="5.68509">
        <ele>1046.53</ele>
        <time>2014-10-21T10:34:42Z</time>
      </trkpt>
      <trkpt lat="44.444" lon="5.68529">
        <ele>1044.61</ele>
        <time>2014-10-21T10:34:57Z</time>
      </trkpt>
      <trkpt lat="44.44401" lon="5.68538">
        <ele>1043.65</ele>
        <time>2014-10-21T10:35:12Z</time>
      </trkpt>
      <trkpt lat="44.44404" lon="5.68552">
        <ele>1042.69</ele>
        <time>2014-10-21T10:35:25Z</time>
      </trkpt>
      <trkpt lat="44.44405" lon="5.68552">
        <ele>1043.17</ele>
        <time>2014-10-21T10:35:38Z</time>
      </trkpt>
      <trkpt lat="44.44403" lon="5.68558">
        <ele>1042.69</ele>
        <time>2014-10-21T10:35:55Z</time>
      </trkpt>
      <trkpt lat="44.44399" lon="5.68574">
        <ele>1045.09</ele>
        <time>2014-10-21T10:36:11Z</time>
      </trkpt>
      <trkpt lat="44.44393" lon="5.68582">
        <ele>1047.01</ele>
        <time>2014-10-21T10:36:24Z</time>
      </trkpt>
      <trkpt lat="44.44389" lon="5.68589">
        <ele>1048.94</ele>
        <time>2014-10-21T10:36:37Z</time>
      </trkpt>
      <trkpt lat="44.44385" lon="5.68603">
        <ele>1051.34</ele>
        <time>2014-10-21T10:36:54Z</time>
      </trkpt>
      <trkpt lat="44.44382" lon="5.68614">
        <ele>1053.74</ele>
        <time>2014-10-21T10:37:10Z</time>
      </trkpt>
      <trkpt lat="44.44374" lon="5.68626">
        <ele>1056.63</ele>
        <time>2014-10-21T10:37:25Z</time>
      </trkpt>
      <trkpt lat="44.44368" lon="5.68637">
        <ele>1058.55</ele>
        <time>2014-10-21T10:37:39Z</time>
      </trkpt>
      <trkpt lat="44.44366" lon="5.68642">
        <ele>1058.55</ele>
        <time>2014-10-21T10:37:48Z</time>
      </trkpt>
      <trkpt lat="44.4436" lon="5.68654">
        <ele>1059.99</ele>
        <time>2014-10-21T10:38:01Z</time>
      </trkpt>
      <trkpt lat="44.44356" lon="5.68662">
        <ele>1061.43</ele>
        <time>2014-10-21T10:38:10Z</time>
      </trkpt>
      <trkpt lat="44.44349" lon="5.68667">
        <ele>1062.87</ele>
        <time>2014-10-21T10:38:20Z</time>
      </trkpt>
      <trkpt lat="44.44344" lon="5.68676">
        <ele>1064.32</ele>
        <time>2014-10-21T10:38:32Z</time>
      </trkpt>
      <trkpt lat="44.44336" lon="5.68688">
        <ele>1067.2</ele>
        <time>2014-10-21T10:38:46Z</time>
      </trkpt>
      <trkpt lat="44.44329" lon="5.68697">
        <ele>1069.6</ele>
        <time>2014-10-21T10:38:59Z</time>
      </trkpt>
      <trkpt lat="44.44326" lon="5.68709">
        <ele>1071.05</ele>
        <time>2014-10-21T10:39:13Z</time>
      </trkpt>
      <trkpt lat="44.44319" lon="5.68716">
        <ele>1073.45</ele>
        <time>2014-10-21T10:39:24Z</time>
      </trkpt>
      <trkpt lat="44.44311" lon="5.68718">
        <ele>1074.89</ele>
        <time>2014-10-21T10:39:36Z</time>
      </trkpt>
      <trkpt lat="44.443" lon="5.68716">
        <ele>1076.33</ele>
        <time>2014-10-21T10:39:46Z</time>
      </trkpt>
      <trkpt lat="44.44288" lon="5.68711">
        <ele>1077.29</ele>
        <time>2014-10-21T10:40:00Z</time>
      </trkpt>
      <trkpt lat="44.44278" lon="5.68704">
        <ele>1079.22</ele>
        <time>2014-10-21T10:40:14Z</time>
      </trkpt>
      <trkpt lat="44.44274" lon="5.68692">
        <ele>1080.66</ele>
        <time>2014-10-21T10:40:27Z</time>
      </trkpt>
      <trkpt lat="44.44274" lon="5.6868">
        <ele>1081.62</ele>
        <time>2014-10-21T10:40:40Z</time>
      </trkpt>
      <trkpt lat="44.44266" lon="5.68667">
        <ele>1084.02</ele>
        <time>2014-10-21T10:40:55Z</time>
      </trkpt>
      <trkpt lat="44.44258" lon="5.68664">
        <ele>1086.43</ele>
        <time>2014-10-21T10:41:10Z</time>
      </trkpt>
      <trkpt lat="44.44255" lon="5.68665">
        <ele>1085.47</ele>
        <time>2014-10-21T10:41:14Z</time>
      </trkpt>
      <trkpt lat="44.4425" lon="5.68658">
        <ele>1087.87</ele>
        <time>2014-10-21T10:41:30Z</time>
      </trkpt>
      <trkpt lat="44.44244" lon="5.6865">
        <ele>1090.75</ele>
        <time>2014-10-21T10:41:40Z</time>
      </trkpt>
      <trkpt lat="44.44235" lon="5.68646">
        <ele>1091.71</ele>
        <time>2014-10-21T10:41:51Z</time>
      </trkpt>
      <trkpt lat="44.44225" lon="5.68648">
        <ele>1092.68</ele>
        <time>2014-10-21T10:42:04Z</time>
      </trkpt>
      <trkpt lat="44.44219" lon="5.68651">
        <ele>1093.64</ele>
        <time>2014-10-21T10:42:18Z</time>
      </trkpt>
      <trkpt lat="44.44212" lon="5.6865">
        <ele>1095.08</ele>
        <time>2014-10-21T10:42:32Z</time>
      </trkpt>
      <trkpt lat="44.44201" lon="5.68646">
        <ele>1097.48</ele>
        <time>2014-10-21T10:42:46Z</time>
      </trkpt>
      <trkpt lat="44.44191" lon="5.68645">
        <ele>1099.89</ele>
        <time>2014-10-21T10:43:01Z</time>
      </trkpt>
      <trkpt lat="44.44181" lon="5.68645">
        <ele>1102.77</ele>
        <time>2014-10-21T10:43:16Z</time>
      </trkpt>
      <trkpt lat="44.44175" lon="5.68641">
        <ele>1105.17</ele>
        <time>2014-10-21T10:43:29Z</time>
      </trkpt>
      <trkpt lat="44.44171" lon="5.68637">
        <ele>1106.61</ele>
        <time>2014-10-21T10:43:47Z</time>
      </trkpt>
      <trkpt lat="44.44169" lon="5.68635">
        <ele>1107.1</ele>
        <time>2014-10-21T10:44:03Z</time>
      </trkpt>
      <trkpt lat="44.44165" lon="5.68636">
        <ele>1108.54</ele>
        <time>2014-10-21T10:44:16Z</time>
      </trkpt>
      <trkpt lat="44.44154" lon="5.68633">
        <ele>1111.42</ele>
        <time>2014-10-21T10:44:32Z</time>
      </trkpt>
      <trkpt lat="44.44146" lon="5.68627">
        <ele>1112.86</ele>
        <time>2014-10-21T10:44:47Z</time>
      </trkpt>
      <trkpt lat="44.44138" lon="5.68626">
        <ele>1115.27</ele>
        <time>2014-10-21T10:44:59Z</time>
      </trkpt>
      <trkpt lat="44.44131" lon="5.6862">
        <ele>1117.67</ele>
        <time>2014-10-21T10:45:12Z</time>
      </trkpt>
      <trkpt lat="44.4413" lon="5.6862">
        <ele>1118.15</ele>
        <time>2014-10-21T10:45:14Z</time>
      </trkpt>
      <trkpt lat="44.44123" lon="5.68614">
        <ele>1120.55</ele>
        <time>2014-10-21T10:45:28Z</time>
      </trkpt>
      <trkpt lat="44.44111" lon="5.68609">
        <ele>1122.48</ele>
        <time>2014-10-21T10:45:45Z</time>
      </trkpt>
      <trkpt lat="44.44103" lon="5.68605">
        <ele>1124.4</ele>
        <time>2014-10-21T10:45:57Z</time>
      </trkpt>
      <trkpt lat="44.44102" lon="5.68604">
        <ele>1124.4</ele>
        <time>2014-10-21T10:46:17Z</time>
      </trkpt>
      <trkpt lat="44.44101" lon="5.68599">
        <ele>1123.92</ele>
        <time>2014-10-21T10:46:33Z</time>
      </trkpt>
      <trkpt lat="44.44109" lon="5.68603">
        <ele>1123.92</ele>
        <time>2014-10-21T10:46:50Z</time>
      </trkpt>
      <trkpt lat="44.44114" lon="5.68602">
        <ele>1124.4</ele>
        <time>2014-10-21T10:47:07Z</time>
      </trkpt>
      <trkpt lat="44.44116" lon="5.68602">
        <ele>1124.88</ele>
        <time>2014-10-21T10:47:42Z</time>
      </trkpt>
      <trkpt lat="44.44117" lon="5.68595">
        <ele>1124.4</ele>
        <time>2014-10-21T10:48:07Z</time>
      </trkpt>
      <trkpt lat="44.44124" lon="5.68584">
        <ele>1125.84</ele>
        <time>2014-10-21T10:48:21Z</time>
      </trkpt>
      <trkpt lat="44.44132" lon="5.68575">
        <ele>1125.84</ele>
        <time>2014-10-21T10:48:34Z</time>
      </trkpt>
      <trkpt lat="44.44138" lon="5.68564">
        <ele>1126.8</ele>
        <time>2014-10-21T10:48:48Z</time>
      </trkpt>
      <trkpt lat="44.44142" lon="5.68549">
        <ele>1127.28</ele>
        <time>2014-10-21T10:49:02Z</time>
      </trkpt>
      <trkpt lat="44.44145" lon="5.68548">
        <ele>1127.28</ele>
        <time>2014-10-21T10:49:17Z</time>
      </trkpt>
      <trkpt lat="44.44145" lon="5.68549">
        <ele>1127.28</ele>
        <time>2014-10-21T10:49:18Z</time>
      </trkpt>
      <trkpt lat="44.44141" lon="5.68561">
        <ele>1125.84</ele>
        <time>2014-10-21T10:49:31Z</time>
      </trkpt>
      <trkpt lat="44.44135" lon="5.68571">
        <ele>1124.88</ele>
        <time>2014-10-21T10:49:40Z</time>
      </trkpt>
      <trkpt lat="44.4413" lon="5.68575">
        <ele>1125.36</ele>
        <time>2014-10-21T10:49:46Z</time>
      </trkpt>
      <trkpt lat="44.44127" lon="5.68577">
        <ele>1125.84</ele>
        <time>2014-10-21T10:50:03Z</time>
      </trkpt>
      <trkpt lat="44.44126" lon="5.68576">
        <ele>1125.36</ele>
        <time>2014-10-21T10:50:27Z</time>
      </trkpt>
      <trkpt lat="44.44124" lon="5.68582">
        <ele>1125.84</ele>
        <time>2014-10-21T10:50:52Z</time>
      </trkpt>
      <trkpt lat="44.44118" lon="5.68593">
        <ele>1124.88</ele>
        <time>2014-10-21T10:51:04Z</time>
      </trkpt>
      <trkpt lat="44.44111" lon="5.68604">
        <ele>1123.92</ele>
        <time>2014-10-21T10:51:18Z</time>
      </trkpt>
      <trkpt lat="44.441" lon="5.68611">
        <ele>1123.44</ele>
        <time>2014-10-21T10:51:31Z</time>
      </trkpt>
      <trkpt lat="44.44093" lon="5.68623">
        <ele>1121.03</ele>
        <time>2014-10-21T10:51:44Z</time>
      </trkpt>
      <trkpt lat="44.44093" lon="5.68629">
        <ele>1119.11</ele>
        <time>2014-10-21T10:52:00Z</time>
      </trkpt>
      <trkpt lat="44.44093" lon="5.68636">
        <ele>1116.23</ele>
        <time>2014-10-21T10:52:11Z</time>
      </trkpt>
      <trkpt lat="44.44086" lon="5.68645">
        <ele>1113.82</ele>
        <time>2014-10-21T10:52:22Z</time>
      </trkpt>
      <trkpt lat="44.44074" lon="5.68653">
        <ele>1112.38</ele>
        <time>2014-10-21T10:52:35Z</time>
      </trkpt>
      <trkpt lat="44.44064" lon="5.68669">
        <ele>1110.94</ele>
        <time>2014-10-21T10:52:48Z</time>
      </trkpt>
      <trkpt lat="44.44056" lon="5.68679">
        <ele>1109.02</ele>
        <time>2014-10-21T10:53:00Z</time>
      </trkpt>
      <trkpt lat="44.4406" lon="5.68682">
        <ele>1108.06</ele>
        <time>2014-10-21T10:53:24Z</time>
      </trkpt>
      <trkpt lat="44.44055" lon="5.68695">
        <ele>1105.65</ele>
        <time>2014-10-21T10:53:40Z</time>
      </trkpt>
      <trkpt lat="44.44047" lon="5.68701">
        <ele>1102.77</ele>
        <time>2014-10-21T10:53:51Z</time>
      </trkpt>
      <trkpt lat="44.44041" lon="5.6871">
        <ele>1100.85</ele>
        <time>2014-10-21T10:53:59Z</time>
      </trkpt>
      <trkpt lat="44.44034" lon="5.6872">
        <ele>1098.92</ele>
        <time>2014-10-21T10:54:08Z</time>
      </trkpt>
      <trkpt lat="44.44029" lon="5.68732">
        <ele>1096.04</ele>
        <time>2014-10-21T10:54:18Z</time>
      </trkpt>
      <trkpt lat="44.44026" lon="5.68735">
        <ele>1094.12</ele>
        <time>2014-10-21T10:54:24Z</time>
      </trkpt>
      <trkpt lat="44.44019" lon="5.68742">
        <ele>1091.71</ele>
        <time>2014-10-21T10:54:35Z</time>
      </trkpt>
      <trkpt lat="44.44014" lon="5.68756">
        <ele>1089.79</ele>
        <time>2014-10-21T10:54:44Z</time>
      </trkpt>
      <trkpt lat="44.44006" lon="5.68764">
        <ele>1087.87</ele>
        <time>2014-10-21T10:54:56Z</time>
      </trkpt>
      <trkpt lat="44.44" lon="5.68778">
        <ele>1086.43</ele>
        <time>2014-10-21T10:55:09Z</time>
      </trkpt>
      <trkpt lat="44.43996" lon="5.68786">
        <ele>1085.47</ele>
        <time>2014-10-21T10:55:24Z</time>
      </trkpt>
      <trkpt lat="44.43995" lon="5.68792">
        <ele>1084.5</ele>
        <time>2014-10-21T10:55:44Z</time>
      </trkpt>
      <trkpt lat="44.4399" lon="5.68804">
        <ele>1081.62</ele>
        <time>2014-10-21T10:55:56Z</time>
      </trkpt>
      <trkpt lat="44.43986" lon="5.68811">
        <ele>1080.66</ele>
        <time>2014-10-21T10:56:03Z</time>
      </trkpt>
      <trkpt lat="44.43984" lon="5.6882">
        <ele>1078.74</ele>
        <time>2014-10-21T10:56:11Z</time>
      </trkpt>
      <trkpt lat="44.43976" lon="5.68834">
        <ele>1075.85</ele>
        <time>2014-10-21T10:56:24Z</time>
      </trkpt>
      <trkpt lat="44.43973" lon="5.6884">
        <ele>1074.89</ele>
        <time>2014-10-21T10:56:28Z</time>
      </trkpt>
      <trkpt lat="44.43969" lon="5.68851">
        <ele>1073.45</ele>
        <time>2014-10-21T10:56:38Z</time>
      </trkpt>
      <trkpt lat="44.43961" lon="5.68868">
        <ele>1071.05</ele>
        <time>2014-10-21T10:56:53Z</time>
      </trkpt>
      <trkpt lat="44.4396" lon="5.68871">
        <ele>1071.05</ele>
        <time>2014-10-21T10:56:55Z</time>
      </trkpt>
      <trkpt lat="44.43952" lon="5.6889">
        <ele>1069.6</ele>
        <time>2014-10-21T10:57:08Z</time>
      </trkpt>
      <trkpt lat="44.43952" lon="5.68893">
        <ele>1069.12</ele>
        <time>2014-10-21T10:57:10Z</time>
      </trkpt>
      <trkpt lat="44.43942" lon="5.68908">
        <ele>1068.16</ele>
        <time>2014-10-21T10:57:23Z</time>
      </trkpt>
      <trkpt lat="44.43939" lon="5.68922">
        <ele>1067.68</ele>
        <time>2014-10-21T10:57:32Z</time>
      </trkpt>
      <trkpt lat="44.43935" lon="5.68942">
        <ele>1067.2</ele>
        <time>2014-10-21T10:57:45Z</time>
      </trkpt>
      <trkpt lat="44.43933" lon="5.68951">
        <ele>1067.2</ele>
        <time>2014-10-21T10:58:04Z</time>
      </trkpt>
      <trkpt lat="44.43935" lon="5.68961">
        <ele>1066.72</ele>
        <time>2014-10-21T10:58:12Z</time>
      </trkpt>
      <trkpt lat="44.43935" lon="5.68967">
        <ele>1065.76</ele>
        <time>2014-10-21T10:58:23Z</time>
      </trkpt>
      <trkpt lat="44.43935" lon="5.68968">
        <ele>1065.28</ele>
        <time>2014-10-21T10:58:38Z</time>
      </trkpt>
      <trkpt lat="44.43939" lon="5.68969">
        <ele>1066.24</ele>
        <time>2014-10-21T10:59:04Z</time>
      </trkpt>
      <trkpt lat="44.43934" lon="5.68973">
        <ele>1065.28</ele>
        <time>2014-10-21T10:59:26Z</time>
      </trkpt>
      <trkpt lat="44.43936" lon="5.68986">
        <ele>1062.39</ele>
        <time>2014-10-21T10:59:38Z</time>
      </trkpt>
      <trkpt lat="44.43937" lon="5.68992">
        <ele>1060.95</ele>
        <time>2014-10-21T10:59:43Z</time>
      </trkpt>
      <trkpt lat="44.43943" lon="5.69012">
        <ele>1059.51</ele>
        <time>2014-10-21T10:59:57Z</time>
      </trkpt>
      <trkpt lat="44.43948" lon="5.69028">
        <ele>1058.07</ele>
        <time>2014-10-21T11:00:11Z</time>
      </trkpt>
      <trkpt lat="44.43949" lon="5.69047">
        <ele>1056.15</ele>
        <time>2014-10-21T11:00:25Z</time>
      </trkpt>
      <trkpt lat="44.43949" lon="5.69063">
        <ele>1055.18</ele>
        <time>2014-10-21T11:00:36Z</time>
      </trkpt>
      <trkpt lat="44.43939" lon="5.69077">
        <ele>1055.67</ele>
        <time>2014-10-21T11:00:50Z</time>
      </trkpt>
      <trkpt lat="44.43932" lon="5.69101">
        <ele>1053.74</ele>
        <time>2014-10-21T11:01:05Z</time>
      </trkpt>
      <trkpt lat="44.4393" lon="5.69104">
        <ele>1053.26</ele>
        <time>2014-10-21T11:01:07Z</time>
      </trkpt>
      <trkpt lat="44.43924" lon="5.69121">
        <ele>1052.78</ele>
        <time>2014-10-21T11:01:21Z</time>
      </trkpt>
      <trkpt lat="44.43911" lon="5.69143">
        <ele>1054.22</ele>
        <time>2014-10-21T11:01:38Z</time>
      </trkpt>
      <trkpt lat="44.43911" lon="5.69146">
        <ele>1054.7</ele>
        <time>2014-10-21T11:01:39Z</time>
      </trkpt>
      <trkpt lat="44.43907" lon="5.69155">
        <ele>1053.74</ele>
        <time>2014-10-21T11:01:44Z</time>
      </trkpt>
      <trkpt lat="44.43901" lon="5.69172">
        <ele>1053.74</ele>
        <time>2014-10-21T11:01:58Z</time>
      </trkpt>
      <trkpt lat="44.43899" lon="5.69183">
        <ele>1053.26</ele>
        <time>2014-10-21T11:02:11Z</time>
      </trkpt>
      <trkpt lat="44.43896" lon="5.69194">
        <ele>1052.3</ele>
        <time>2014-10-21T11:02:26Z</time>
      </trkpt>
      <trkpt lat="44.43892" lon="5.69205">
        <ele>1051.82</ele>
        <time>2014-10-21T11:02:36Z</time>
      </trkpt>
      <trkpt lat="44.43889" lon="5.69214">
        <ele>1049.9</ele>
        <time>2014-10-21T11:02:45Z</time>
      </trkpt>
      <trkpt lat="44.43885" lon="5.69221">
        <ele>1048.94</ele>
        <time>2014-10-21T11:02:52Z</time>
      </trkpt>
      <trkpt lat="44.43881" lon="5.69235">
        <ele>1047.97</ele>
        <time>2014-10-21T11:03:03Z</time>
      </trkpt>
      <trkpt lat="44.43874" lon="5.69248">
        <ele>1044.61</ele>
        <time>2014-10-21T11:03:14Z</time>
      </trkpt>
      <trkpt lat="44.43867" lon="5.69261">
        <ele>1043.17</ele>
        <time>2014-10-21T11:03:25Z</time>
      </trkpt>
      <trkpt lat="44.43862" lon="5.69268">
        <ele>1041.25</ele>
        <time>2014-10-21T11:03:31Z</time>
      </trkpt>
      <trkpt lat="44.43849" lon="5.69276">
        <ele>1038.84</ele>
        <time>2014-10-21T11:03:45Z</time>
      </trkpt>
      <trkpt lat="44.43841" lon="5.69285">
        <ele>1037.4</ele>
        <time>2014-10-21T11:03:54Z</time>
      </trkpt>
      <trkpt lat="44.43839" lon="5.69288">
        <ele>1036.44</ele>
        <time>2014-10-21T11:03:57Z</time>
      </trkpt>
      <trkpt lat="44.43831" lon="5.69298">
        <ele>1034.04</ele>
        <time>2014-10-21T11:04:09Z</time>
      </trkpt>
      <trkpt lat="44.43822" lon="5.69309">
        <ele>1033.07</ele>
        <time>2014-10-21T11:04:20Z</time>
      </trkpt>
      <trkpt lat="44.43813" lon="5.69324">
        <ele>1032.59</ele>
        <time>2014-10-21T11:04:32Z</time>
      </trkpt>
      <trkpt lat="44.43805" lon="5.69347">
        <ele>1031.63</ele>
        <time>2014-10-21T11:04:47Z</time>
      </trkpt>
      <trkpt lat="44.43798" lon="5.69363">
        <ele>1030.19</ele>
        <time>2014-10-21T11:04:59Z</time>
      </trkpt>
      <trkpt lat="44.43795" lon="5.69379">
        <ele>1028.27</ele>
        <time>2014-10-21T11:05:11Z</time>
      </trkpt>
      <trkpt lat="44.43796" lon="5.69381">
        <ele>1028.75</ele>
        <time>2014-10-21T11:05:29Z</time>
      </trkpt>
      <trkpt lat="44.43791" lon="5.69389">
        <ele>1027.79</ele>
        <time>2014-10-21T11:05:41Z</time>
      </trkpt>
      <trkpt lat="44.43784" lon="5.69389">
        <ele>1027.79</ele>
        <time>2014-10-21T11:05:50Z</time>
      </trkpt>
      <trkpt lat="44.43784" lon="5.69389">
        <ele>1027.79</ele>
        <time>2014-10-21T11:06:07Z</time>
      </trkpt>
      <trkpt lat="44.43786" lon="5.69391">
        <ele>1027.79</ele>
        <time>2014-10-21T11:06:24Z</time>
      </trkpt>
      <trkpt lat="44.43786" lon="5.69392">
        <ele>1028.27</ele>
        <time>2014-10-21T11:06:39Z</time>
      </trkpt>
      <trkpt lat="44.43788" lon="5.69402">
        <ele>1027.31</ele>
        <time>2014-10-21T11:06:54Z</time>
      </trkpt>
      <trkpt lat="44.43788" lon="5.694">
        <ele>1026.83</ele>
        <time>2014-10-21T11:07:18Z</time>
      </trkpt>
      <trkpt lat="44.43788" lon="5.69391">
        <ele>1027.79</ele>
        <time>2014-10-21T11:07:38Z</time>
      </trkpt>
      <trkpt lat="44.43789" lon="5.69387">
        <ele>1027.79</ele>
        <time>2014-10-21T11:07:50Z</time>
      </trkpt>
      <trkpt lat="44.43781" lon="5.69388">
        <ele>1028.27</ele>
        <time>2014-10-21T11:08:03Z</time>
      </trkpt>
      <trkpt lat="44.43782" lon="5.69387">
        <ele>1027.31</ele>
        <time>2014-10-21T11:08:16Z</time>
      </trkpt>
      <trkpt lat="44.43782" lon="5.69386">
        <ele>1027.31</ele>
        <time>2014-10-21T11:08:53Z</time>
      </trkpt>
      <trkpt lat="44.43781" lon="5.69387">
        <ele>1028.27</ele>
        <time>2014-10-21T11:09:22Z</time>
      </trkpt>
      <trkpt lat="44.43789" lon="5.69387">
        <ele>1027.79</ele>
        <time>2014-10-21T11:10:01Z</time>
      </trkpt>
      <trkpt lat="44.43796" lon="5.69389">
        <ele>1028.75</ele>
        <time>2014-10-21T11:10:37Z</time>
      </trkpt>
      <trkpt lat="44.43794" lon="5.69387">
        <ele>1027.79</ele>
        <time>2014-10-21T11:11:13Z</time>
      </trkpt>
      <trkpt lat="44.43799" lon="5.69381">
        <ele>1028.27</ele>
        <time>2014-10-21T11:11:55Z</time>
      </trkpt>
      <trkpt lat="44.43791" lon="5.69383">
        <ele>1027.79</ele>
        <time>2014-10-21T11:12:31Z</time>
      </trkpt>
      <trkpt lat="44.43795" lon="5.69382">
        <ele>1027.79</ele>
        <time>2014-10-21T11:13:12Z</time>
      </trkpt>
      <trkpt lat="44.43788" lon="5.6938">
        <ele>1028.27</ele>
        <time>2014-10-21T11:13:40Z</time>
      </trkpt>
      <trkpt lat="44.43781" lon="5.69386">
        <ele>1028.27</ele>
        <time>2014-10-21T11:14:18Z</time>
      </trkpt>
      <trkpt lat="44.43789" lon="5.69383">
        <ele>1028.27</ele>
        <time>2014-10-21T11:14:58Z</time>
      </trkpt>
      <trkpt lat="44.43784" lon="5.69378">
        <ele>1027.31</ele>
        <time>2014-10-21T11:15:36Z</time>
      </trkpt>
      <trkpt lat="44.43787" lon="5.69386">
        <ele>1028.27</ele>
        <time>2014-10-21T11:16:11Z</time>
      </trkpt>
      <trkpt lat="44.43783" lon="5.69383">
        <ele>1027.79</ele>
        <time>2014-10-21T11:16:46Z</time>
      </trkpt>
      <trkpt lat="44.43783" lon="5.69382">
        <ele>1027.79</ele>
        <time>2014-10-21T11:17:25Z</time>
      </trkpt>
      <trkpt lat="44.43788" lon="5.69383">
        <ele>1028.27</ele>
        <time>2014-10-21T11:18:07Z</time>
      </trkpt>
      <trkpt lat="44.4378" lon="5.69384">
        <ele>1027.79</ele>
        <time>2014-10-21T11:18:43Z</time>
      </trkpt>
      <trkpt lat="44.43785" lon="5.6938">
        <ele>1028.75</ele>
        <time>2014-10-21T11:19:23Z</time>
      </trkpt>
      <trkpt lat="44.43785" lon="5.69382">
        <ele>1028.75</ele>
        <time>2014-10-21T11:20:04Z</time>
      </trkpt>
      <trkpt lat="44.43783" lon="5.69383">
        <ele>1028.27</ele>
        <time>2014-10-21T11:20:46Z</time>
      </trkpt>
      <trkpt lat="44.43788" lon="5.69383">
        <ele>1027.79</ele>
        <time>2014-10-21T11:21:27Z</time>
      </trkpt>
      <trkpt lat="44.43788" lon="5.69382">
        <ele>1027.31</ele>
        <time>2014-10-21T11:22:03Z</time>
      </trkpt>
      <trkpt lat="44.43783" lon="5.69384">
        <ele>1027.79</ele>
        <time>2014-10-21T11:22:41Z</time>
      </trkpt>
      <trkpt lat="44.43787" lon="5.69381">
        <ele>1027.79</ele>
        <time>2014-10-21T11:23:16Z</time>
      </trkpt>
      <trkpt lat="44.43786" lon="5.69381">
        <ele>1027.79</ele>
        <time>2014-10-21T11:23:56Z</time>
      </trkpt>
      <trkpt lat="44.43782" lon="5.69385">
        <ele>1028.27</ele>
        <time>2014-10-21T11:24:40Z</time>
      </trkpt>
      <trkpt lat="44.43783" lon="5.69383">
        <ele>1028.75</ele>
        <time>2014-10-21T11:25:11Z</time>
      </trkpt>
      <trkpt lat="44.43781" lon="5.69383">
        <ele>1028.75</ele>
        <time>2014-10-21T11:25:54Z</time>
      </trkpt>
      <trkpt lat="44.43782" lon="5.69384">
        <ele>1028.27</ele>
        <time>2014-10-21T11:26:43Z</time>
      </trkpt>
      <trkpt lat="44.43784" lon="5.69383">
        <ele>1028.75</ele>
        <time>2014-10-21T11:27:24Z</time>
      </trkpt>
      <trkpt lat="44.43783" lon="5.69385">
        <ele>1028.27</ele>
        <time>2014-10-21T11:28:12Z</time>
      </trkpt>
      <trkpt lat="44.43784" lon="5.69384">
        <ele>1028.27</ele>
        <time>2014-10-21T11:28:58Z</time>
      </trkpt>
      <trkpt lat="44.43785" lon="5.69384">
        <ele>1027.79</ele>
        <time>2014-10-21T11:29:41Z</time>
      </trkpt>
      <trkpt lat="44.43784" lon="5.69384">
        <ele>1028.27</ele>
        <time>2014-10-21T11:30:27Z</time>
      </trkpt>
      <trkpt lat="44.43784" lon="5.69382">
        <ele>1028.27</ele>
        <time>2014-10-21T11:31:13Z</time>
      </trkpt>
      <trkpt lat="44.43786" lon="5.69381">
        <ele>1028.75</ele>
        <time>2014-10-21T11:31:59Z</time>
      </trkpt>
      <trkpt lat="44.43782" lon="5.69382">
        <ele>1028.27</ele>
        <time>2014-10-21T11:32:32Z</time>
      </trkpt>
      <trkpt lat="44.43783" lon="5.69382">
        <ele>1028.75</ele>
        <time>2014-10-21T11:33:13Z</time>
      </trkpt>
      <trkpt lat="44.43783" lon="5.69383">
        <ele>1028.27</ele>
        <time>2014-10-21T11:33:52Z</time>
      </trkpt>
      <trkpt lat="44.43783" lon="5.69384">
        <ele>1028.75</ele>
        <time>2014-10-21T11:34:34Z</time>
      </trkpt>
      <trkpt lat="44.43785" lon="5.69385">
        <ele>1028.75</ele>
        <time>2014-10-21T11:35:20Z</time>
      </trkpt>
      <trkpt lat="44.43784" lon="5.69386">
        <ele>1028.27</ele>
        <time>2014-10-21T11:35:59Z</time>
      </trkpt>
      <trkpt lat="44.43784" lon="5.69384">
        <ele>1027.31</ele>
        <time>2014-10-21T11:36:46Z</time>
      </trkpt>
      <trkpt lat="44.43785" lon="5.69384">
        <ele>1028.27</ele>
        <time>2014-10-21T11:37:23Z</time>
      </trkpt>
      <trkpt lat="44.43786" lon="5.69385">
        <ele>1027.31</ele>
        <time>2014-10-21T11:38:02Z</time>
      </trkpt>
      <trkpt lat="44.43784" lon="5.69386">
        <ele>1026.83</ele>
        <time>2014-10-21T11:38:46Z</time>
      </trkpt>
      <trkpt lat="44.43787" lon="5.69385">
        <ele>1027.31</ele>
        <time>2014-10-21T11:39:23Z</time>
      </trkpt>
      <trkpt lat="44.43786" lon="5.69383">
        <ele>1027.31</ele>
        <time>2014-10-21T11:40:03Z</time>
      </trkpt>
      <trkpt lat="44.43783" lon="5.69383">
        <ele>1026.83</ele>
        <time>2014-10-21T11:40:37Z</time>
      </trkpt>
      <trkpt lat="44.43783" lon="5.69383">
        <ele>1027.31</ele>
        <time>2014-10-21T11:41:10Z</time>
      </trkpt>
      <trkpt lat="44.43785" lon="5.69382">
        <ele>1026.83</ele>
        <time>2014-10-21T11:41:42Z</time>
      </trkpt>
      <trkpt lat="44.43782" lon="5.69386">
        <ele>1026.34</ele>
        <time>2014-10-21T11:42:23Z</time>
      </trkpt>
      <trkpt lat="44.43784" lon="5.69385">
        <ele>1026.83</ele>
        <time>2014-10-21T11:42:59Z</time>
      </trkpt>
      <trkpt lat="44.43786" lon="5.69381">
        <ele>1025.86</ele>
        <time>2014-10-21T11:43:37Z</time>
      </trkpt>
      <trkpt lat="44.43786" lon="5.69381">
        <ele>1025.86</ele>
        <time>2014-10-21T11:44:13Z</time>
      </trkpt>
      <trkpt lat="44.43784" lon="5.69386">
        <ele>1026.34</ele>
        <time>2014-10-21T11:44:49Z</time>
      </trkpt>
      <trkpt lat="44.43783" lon="5.69384">
        <ele>1026.34</ele>
        <time>2014-10-21T11:45:24Z</time>
      </trkpt>
      <trkpt lat="44.43787" lon="5.69383">
        <ele>1026.83</ele>
        <time>2014-10-21T11:46:05Z</time>
      </trkpt>
      <trkpt lat="44.43782" lon="5.69382">
        <ele>1026.34</ele>
        <time>2014-10-21T11:46:44Z</time>
      </trkpt>
      <trkpt lat="44.43783" lon="5.69383">
        <ele>1026.34</ele>
        <time>2014-10-21T11:47:24Z</time>
      </trkpt>
      <trkpt lat="44.43787" lon="5.69384">
        <ele>1026.34</ele>
        <time>2014-10-21T11:47:55Z</time>
      </trkpt>
      <trkpt lat="44.43782" lon="5.69382">
        <ele>1025.86</ele>
        <time>2014-10-21T11:48:29Z</time>
      </trkpt>
      <trkpt lat="44.43783" lon="5.69382">
        <ele>1026.83</ele>
        <time>2014-10-21T11:48:54Z</time>
      </trkpt>
      <trkpt lat="44.43783" lon="5.69384">
        <ele>1026.34</ele>
        <time>2014-10-21T11:49:26Z</time>
      </trkpt>
      <trkpt lat="44.4378" lon="5.69384">
        <ele>1026.34</ele>
        <time>2014-10-21T11:49:50Z</time>
      </trkpt>
      <trkpt lat="44.43782" lon="5.69383">
        <ele>1026.34</ele>
        <time>2014-10-21T11:50:32Z</time>
      </trkpt>
      <trkpt lat="44.43778" lon="5.69383">
        <ele>1026.34</ele>
        <time>2014-10-21T11:51:12Z</time>
      </trkpt>
      <trkpt lat="44.43778" lon="5.6938">
        <ele>1026.34</ele>
        <time>2014-10-21T11:51:51Z</time>
      </trkpt>
      <trkpt lat="44.43774" lon="5.6938">
        <ele>1026.34</ele>
        <time>2014-10-21T11:52:29Z</time>
      </trkpt>
      <trkpt lat="44.43778" lon="5.69378">
        <ele>1025.38</ele>
        <time>2014-10-21T11:53:06Z</time>
      </trkpt>
      <trkpt lat="44.43779" lon="5.69377">
        <ele>1026.83</ele>
        <time>2014-10-21T11:53:47Z</time>
      </trkpt>
      <trkpt lat="44.43778" lon="5.69379">
        <ele>1026.83</ele>
        <time>2014-10-21T11:54:24Z</time>
      </trkpt>
      <trkpt lat="44.4378" lon="5.69379">
        <ele>1028.27</ele>
        <time>2014-10-21T11:55:06Z</time>
      </trkpt>
      <trkpt lat="44.43779" lon="5.69378">
        <ele>1027.31</ele>
        <time>2014-10-21T11:55:49Z</time>
      </trkpt>
      <trkpt lat="44.43774" lon="5.69376">
        <ele>1026.34</ele>
        <time>2014-10-21T11:56:28Z</time>
      </trkpt>
      <trkpt lat="44.43776" lon="5.69374">
        <ele>1027.31</ele>
        <time>2014-10-21T11:57:03Z</time>
      </trkpt>
      <trkpt lat="44.43772" lon="5.69375">
        <ele>1027.31</ele>
        <time>2014-10-21T11:57:19Z</time>
      </trkpt>
      <trkpt lat="44.43772" lon="5.69375">
        <ele>1027.79</ele>
        <time>2014-10-21T11:57:57Z</time>
      </trkpt>
      <trkpt lat="44.43771" lon="5.69376">
        <ele>1029.23</ele>
        <time>2014-10-21T11:58:14Z</time>
      </trkpt>
      <trkpt lat="44.4377" lon="5.69375">
        <ele>1028.27</ele>
        <time>2014-10-21T11:58:48Z</time>
      </trkpt>
      <trkpt lat="44.4377" lon="5.69379">
        <ele>1028.75</ele>
        <time>2014-10-21T11:59:17Z</time>
      </trkpt>
      <trkpt lat="44.43773" lon="5.69377">
        <ele>1028.27</ele>
        <time>2014-10-21T11:59:49Z</time>
      </trkpt>
      <trkpt lat="44.43772" lon="5.69377">
        <ele>1027.79</ele>
        <time>2014-10-21T12:00:29Z</time>
      </trkpt>
      <trkpt lat="44.43772" lon="5.69375">
        <ele>1028.75</ele>
        <time>2014-10-21T12:00:59Z</time>
      </trkpt>
      <trkpt lat="44.43771" lon="5.69375">
        <ele>1029.23</ele>
        <time>2014-10-21T12:01:42Z</time>
      </trkpt>
      <trkpt lat="44.43771" lon="5.69372">
        <ele>1030.19</ele>
        <time>2014-10-21T12:02:17Z</time>
      </trkpt>
      <trkpt lat="44.43771" lon="5.69372">
        <ele>1029.71</ele>
        <time>2014-10-21T12:02:49Z</time>
      </trkpt>
      <trkpt lat="44.43773" lon="5.69373">
        <ele>1030.19</ele>
        <time>2014-10-21T12:03:19Z</time>
      </trkpt>
      <trkpt lat="44.43774" lon="5.69379">
        <ele>1030.19</ele>
        <time>2014-10-21T12:03:43Z</time>
      </trkpt>
      <trkpt lat="44.43778" lon="5.69384">
        <ele>1029.71</ele>
        <time>2014-10-21T12:04:14Z</time>
      </trkpt>
      <trkpt lat="44.43778" lon="5.69386">
        <ele>1030.19</ele>
        <time>2014-10-21T12:04:55Z</time>
      </trkpt>
      <trkpt lat="44.43779" lon="5.69384">
        <ele>1031.15</ele>
        <time>2014-10-21T12:05:25Z</time>
      </trkpt>
      <trkpt lat="44.4378" lon="5.69382">
        <ele>1030.67</ele>
        <time>2014-10-21T12:06:01Z</time>
      </trkpt>
      <trkpt lat="44.43778" lon="5.69384">
        <ele>1030.19</ele>
        <time>2014-10-21T12:06:42Z</time>
      </trkpt>
      <trkpt lat="44.43779" lon="5.69383">
        <ele>1030.19</ele>
        <time>2014-10-21T12:07:13Z</time>
      </trkpt>
      <trkpt lat="44.43779" lon="5.69385">
        <ele>1030.19</ele>
        <time>2014-10-21T12:07:45Z</time>
      </trkpt>
      <trkpt lat="44.43778" lon="5.69382">
        <ele>1029.23</ele>
        <time>2014-10-21T12:08:17Z</time>
      </trkpt>
      <trkpt lat="44.43778" lon="5.69382">
        <ele>1030.67</ele>
        <time>2014-10-21T12:08:20Z</time>
      </trkpt>
      <trkpt lat="44.43778" lon="5.69381">
        <ele>1029.71</ele>
        <time>2014-10-21T12:08:57Z</time>
      </trkpt>
      <trkpt lat="44.43779" lon="5.69383">
        <ele>1030.19</ele>
        <time>2014-10-21T12:09:29Z</time>
      </trkpt>
      <trkpt lat="44.43777" lon="5.69382">
        <ele>1030.67</ele>
        <time>2014-10-21T12:10:04Z</time>
      </trkpt>
      <trkpt lat="44.43777" lon="5.69385">
        <ele>1030.19</ele>
        <time>2014-10-21T12:10:44Z</time>
      </trkpt>
      <trkpt lat="44.43777" lon="5.69384">
        <ele>1030.67</ele>
        <time>2014-10-21T12:11:22Z</time>
      </trkpt>
      <trkpt lat="44.43775" lon="5.69379">
        <ele>1030.67</ele>
        <time>2014-10-21T12:11:56Z</time>
      </trkpt>
      <trkpt lat="44.43773" lon="5.69382">
        <ele>1030.67</ele>
        <time>2014-10-21T12:12:33Z</time>
      </trkpt>
      <trkpt lat="44.43773" lon="5.6938">
        <ele>1031.15</ele>
        <time>2014-10-21T12:13:09Z</time>
      </trkpt>
      <trkpt lat="44.43774" lon="5.69379">
        <ele>1031.15</ele>
        <time>2014-10-21T12:13:36Z</time>
      </trkpt>
      <trkpt lat="44.4378" lon="5.6938">
        <ele>1031.15</ele>
        <time>2014-10-21T12:14:15Z</time>
      </trkpt>
      <trkpt lat="44.43779" lon="5.69383">
        <ele>1031.15</ele>
        <time>2014-10-21T12:14:49Z</time>
      </trkpt>
      <trkpt lat="44.43779" lon="5.69384">
        <ele>1031.63</ele>
        <time>2014-10-21T12:15:16Z</time>
      </trkpt>
      <trkpt lat="44.43782" lon="5.69386">
        <ele>1031.63</ele>
        <time>2014-10-21T12:15:27Z</time>
      </trkpt>
      <trkpt lat="44.43784" lon="5.69385">
        <ele>1031.15</ele>
        <time>2014-10-21T12:15:41Z</time>
      </trkpt>
      <trkpt lat="44.43782" lon="5.69385">
        <ele>1031.63</ele>
        <time>2014-10-21T12:15:50Z</time>
      </trkpt>
      <trkpt lat="44.43782" lon="5.69385">
        <ele>1031.15</ele>
        <time>2014-10-21T12:16:27Z</time>
      </trkpt>
      <trkpt lat="44.4378" lon="5.69386">
        <ele>1031.63</ele>
        <time>2014-10-21T12:16:53Z</time>
      </trkpt>
      <trkpt lat="44.43782" lon="5.69387">
        <ele>1031.63</ele>
        <time>2014-10-21T12:17:15Z</time>
      </trkpt>
      <trkpt lat="44.4378" lon="5.69383">
        <ele>1033.07</ele>
        <time>2014-10-21T12:17:28Z</time>
      </trkpt>
      <trkpt lat="44.43783" lon="5.69389">
        <ele>1032.59</ele>
        <time>2014-10-21T12:17:42Z</time>
      </trkpt>
      <trkpt lat="44.43784" lon="5.69389">
        <ele>1032.11</ele>
        <time>2014-10-21T12:17:53Z</time>
      </trkpt>
      <trkpt lat="44.43784" lon="5.69383">
        <ele>1032.11</ele>
        <time>2014-10-21T12:18:12Z</time>
      </trkpt>
      <trkpt lat="44.4378" lon="5.6938">
        <ele>1032.11</ele>
        <time>2014-10-21T12:18:43Z</time>
      </trkpt>
      <trkpt lat="44.43779" lon="5.69379">
        <ele>1032.11</ele>
        <time>2014-10-21T12:19:06Z</time>
      </trkpt>
      <trkpt lat="44.43783" lon="5.69385">
        <ele>1032.11</ele>
        <time>2014-10-21T12:19:24Z</time>
      </trkpt>
      <trkpt lat="44.43781" lon="5.69385">
        <ele>1032.59</ele>
        <time>2014-10-21T12:19:42Z</time>
      </trkpt>
      <trkpt lat="44.43782" lon="5.69388">
        <ele>1032.59</ele>
        <time>2014-10-21T12:20:03Z</time>
      </trkpt>
      <trkpt lat="44.43782" lon="5.69392">
        <ele>1032.11</ele>
        <time>2014-10-21T12:20:14Z</time>
      </trkpt>
      <trkpt lat="44.4378" lon="5.69391">
        <ele>1032.11</ele>
        <time>2014-10-21T12:20:26Z</time>
      </trkpt>
      <trkpt lat="44.43783" lon="5.69389">
        <ele>1032.59</ele>
        <time>2014-10-21T12:20:38Z</time>
      </trkpt>
      <trkpt lat="44.43785" lon="5.69391">
        <ele>1031.63</ele>
        <time>2014-10-21T12:20:40Z</time>
      </trkpt>
      <trkpt lat="44.43792" lon="5.69407">
        <ele>1029.71</ele>
        <time>2014-10-21T12:20:57Z</time>
      </trkpt>
      <trkpt lat="44.43792" lon="5.69405">
        <ele>1029.71</ele>
        <time>2014-10-21T12:21:11Z</time>
      </trkpt>
      <trkpt lat="44.43795" lon="5.69413">
        <ele>1028.27</ele>
        <time>2014-10-21T12:21:24Z</time>
      </trkpt>
      <trkpt lat="44.438" lon="5.69427">
        <ele>1027.79</ele>
        <time>2014-10-21T12:21:38Z</time>
      </trkpt>
      <trkpt lat="44.43801" lon="5.69429">
        <ele>1027.31</ele>
        <time>2014-10-21T12:21:50Z</time>
      </trkpt>
      <trkpt lat="44.43809" lon="5.69438">
        <ele>1026.34</ele>
        <time>2014-10-21T12:22:08Z</time>
      </trkpt>
      <trkpt lat="44.43808" lon="5.69438">
        <ele>1026.34</ele>
        <time>2014-10-21T12:22:23Z</time>
      </trkpt>
      <trkpt lat="44.43802" lon="5.69428">
        <ele>1027.31</ele>
        <time>2014-10-21T12:22:37Z</time>
      </trkpt>
      <trkpt lat="44.43816" lon="5.69418">
        <ele>1027.31</ele>
        <time>2014-10-21T12:22:54Z</time>
      </trkpt>
      <trkpt lat="44.43815" lon="5.69423">
        <ele>1027.31</ele>
        <time>2014-10-21T12:23:14Z</time>
      </trkpt>
      <trkpt lat="44.43818" lon="5.69422">
        <ele>1027.31</ele>
        <time>2014-10-21T12:23:45Z</time>
      </trkpt>
      <trkpt lat="44.43813" lon="5.69424">
        <ele>1027.79</ele>
        <time>2014-10-21T12:24:03Z</time>
      </trkpt>
      <trkpt lat="44.43804" lon="5.69427">
        <ele>1027.31</ele>
        <time>2014-10-21T12:24:16Z</time>
      </trkpt>
      <trkpt lat="44.43801" lon="5.69433">
        <ele>1026.83</ele>
        <time>2014-10-21T12:24:31Z</time>
      </trkpt>
      <trkpt lat="44.43812" lon="5.69436">
        <ele>1025.86</ele>
        <time>2014-10-21T12:24:46Z</time>
      </trkpt>
      <trkpt lat="44.4381" lon="5.69449">
        <ele>1024.9</ele>
        <time>2014-10-21T12:25:03Z</time>
      </trkpt>
      <trkpt lat="44.43801" lon="5.69454">
        <ele>1024.9</ele>
        <time>2014-10-21T12:25:15Z</time>
      </trkpt>
      <trkpt lat="44.43804" lon="5.69463">
        <ele>1022.98</ele>
        <time>2014-10-21T12:25:31Z</time>
      </trkpt>
      <trkpt lat="44.43809" lon="5.69467">
        <ele>1022.5</ele>
        <time>2014-10-21T12:25:45Z</time>
      </trkpt>
      <trkpt lat="44.43806" lon="5.69472">
        <ele>1022.02</ele>
        <time>2014-10-21T12:25:59Z</time>
      </trkpt>
      <trkpt lat="44.43806" lon="5.69483">
        <ele>1020.1</ele>
        <time>2014-10-21T12:26:12Z</time>
      </trkpt>
      <trkpt lat="44.43807" lon="5.69495">
        <ele>1018.17</ele>
        <time>2014-10-21T12:26:24Z</time>
      </trkpt>
      <trkpt lat="44.43804" lon="5.69508">
        <ele>1015.77</ele>
        <time>2014-10-21T12:26:39Z</time>
      </trkpt>
      <trkpt lat="44.43804" lon="5.69517">
        <ele>1014.81</ele>
        <time>2014-10-21T12:26:52Z</time>
      </trkpt>
      <trkpt lat="44.4381" lon="5.69517">
        <ele>1014.33</ele>
        <time>2014-10-21T12:27:06Z</time>
      </trkpt>
      <trkpt lat="44.43806" lon="5.69517">
        <ele>1014.33</ele>
        <time>2014-10-21T12:27:22Z</time>
      </trkpt>
      <trkpt lat="44.43806" lon="5.69522">
        <ele>1012.89</ele>
        <time>2014-10-21T12:27:37Z</time>
      </trkpt>
      <trkpt lat="44.43809" lon="5.69522">
        <ele>1011.93</ele>
        <time>2014-10-21T12:27:53Z</time>
      </trkpt>
      <trkpt lat="44.43809" lon="5.69511">
        <ele>1013.37</ele>
        <time>2014-10-21T12:28:07Z</time>
      </trkpt>
      <trkpt lat="44.43806" lon="5.69507">
        <ele>1014.81</ele>
        <time>2014-10-21T12:28:19Z</time>
      </trkpt>
      <trkpt lat="44.43807" lon="5.69496">
        <ele>1015.77</ele>
        <time>2014-10-21T12:28:39Z</time>
      </trkpt>
      <trkpt lat="44.43807" lon="5.69486">
        <ele>1019.13</ele>
        <time>2014-10-21T12:28:52Z</time>
      </trkpt>
      <trkpt lat="44.43807" lon="5.69485">
        <ele>1019.13</ele>
        <time>2014-10-21T12:28:53Z</time>
      </trkpt>
      <trkpt lat="44.43805" lon="5.6947">
        <ele>1020.1</ele>
        <time>2014-10-21T12:29:08Z</time>
      </trkpt>
      <trkpt lat="44.43806" lon="5.69466">
        <ele>1021.54</ele>
        <time>2014-10-21T12:29:21Z</time>
      </trkpt>
      <trkpt lat="44.43803" lon="5.69453">
        <ele>1022.98</ele>
        <time>2014-10-21T12:29:36Z</time>
      </trkpt>
      <trkpt lat="44.43803" lon="5.69442">
        <ele>1023.46</ele>
        <time>2014-10-21T12:29:50Z</time>
      </trkpt>
      <trkpt lat="44.43803" lon="5.69433">
        <ele>1024.42</ele>
        <time>2014-10-21T12:30:00Z</time>
      </trkpt>
      <trkpt lat="44.43797" lon="5.6942">
        <ele>1025.86</ele>
        <time>2014-10-21T12:30:14Z</time>
      </trkpt>
      <trkpt lat="44.43793" lon="5.69407">
        <ele>1027.31</ele>
        <time>2014-10-21T12:30:26Z</time>
      </trkpt>
      <trkpt lat="44.43796" lon="5.69395">
        <ele>1028.27</ele>
        <time>2014-10-21T12:30:39Z</time>
      </trkpt>
      <trkpt lat="44.43798" lon="5.69393">
        <ele>1028.75</ele>
        <time>2014-10-21T12:30:41Z</time>
      </trkpt>
      <trkpt lat="44.43808" lon="5.69387">
        <ele>1028.75</ele>
        <time>2014-10-21T12:30:54Z</time>
      </trkpt>
      <trkpt lat="44.43819" lon="5.69379">
        <ele>1028.75</ele>
        <time>2014-10-21T12:31:09Z</time>
      </trkpt>
      <trkpt lat="44.43832" lon="5.69365">
        <ele>1027.79</ele>
        <time>2014-10-21T12:31:22Z</time>
      </trkpt>
      <trkpt lat="44.43848" lon="5.6936">
        <ele>1028.27</ele>
        <time>2014-10-21T12:31:35Z</time>
      </trkpt>
      <trkpt lat="44.43863" lon="5.69364">
        <ele>1027.79</ele>
        <time>2014-10-21T12:31:47Z</time>
      </trkpt>
      <trkpt lat="44.43878" lon="5.69368">
        <ele>1027.79</ele>
        <time>2014-10-21T12:32:01Z</time>
      </trkpt>
      <trkpt lat="44.43879" lon="5.69368">
        <ele>1027.79</ele>
        <time>2014-10-21T12:32:02Z</time>
      </trkpt>
      <trkpt lat="44.43894" lon="5.69363">
        <ele>1027.31</ele>
        <time>2014-10-21T12:32:16Z</time>
      </trkpt>
      <trkpt lat="44.43895" lon="5.69363">
        <ele>1026.83</ele>
        <time>2014-10-21T12:32:17Z</time>
      </trkpt>
      <trkpt lat="44.43909" lon="5.69352">
        <ele>1027.31</ele>
        <time>2014-10-21T12:32:31Z</time>
      </trkpt>
      <trkpt lat="44.43922" lon="5.69346">
        <ele>1025.86</ele>
        <time>2014-10-21T12:32:41Z</time>
      </trkpt>
      <trkpt lat="44.43931" lon="5.69343">
        <ele>1025.86</ele>
        <time>2014-10-21T12:32:48Z</time>
      </trkpt>
      <trkpt lat="44.43946" lon="5.69338">
        <ele>1024.9</ele>
        <time>2014-10-21T12:33:02Z</time>
      </trkpt>
      <trkpt lat="44.4396" lon="5.69331">
        <ele>1023.94</ele>
        <time>2014-10-21T12:33:15Z</time>
      </trkpt>
      <trkpt lat="44.43975" lon="5.69324">
        <ele>1022.5</ele>
        <time>2014-10-21T12:33:29Z</time>
      </trkpt>
      <trkpt lat="44.43993" lon="5.69319">
        <ele>1021.06</ele>
        <time>2014-10-21T12:33:44Z</time>
      </trkpt>
      <trkpt lat="44.44008" lon="5.69313">
        <ele>1019.13</ele>
        <time>2014-10-21T12:33:56Z</time>
      </trkpt>
      <trkpt lat="44.4401" lon="5.69314">
        <ele>1019.62</ele>
        <time>2014-10-21T12:34:12Z</time>
      </trkpt>
      <trkpt lat="44.44014" lon="5.69323">
        <ele>1018.17</ele>
        <time>2014-10-21T12:34:18Z</time>
      </trkpt>
      <trkpt lat="44.44019" lon="5.69342">
        <ele>1015.29</ele>
        <time>2014-10-21T12:34:33Z</time>
      </trkpt>
      <trkpt lat="44.44014" lon="5.69357">
        <ele>1012.41</ele>
        <time>2014-10-21T12:34:47Z</time>
      </trkpt>
      <trkpt lat="44.44014" lon="5.69373">
        <ele>1010</ele>
        <time>2014-10-21T12:35:02Z</time>
      </trkpt>
      <trkpt lat="44.44016" lon="5.69384">
        <ele>1007.6</ele>
        <time>2014-10-21T12:35:21Z</time>
      </trkpt>
      <trkpt lat="44.44016" lon="5.69395">
        <ele>1005.2</ele>
        <time>2014-10-21T12:35:36Z</time>
      </trkpt>
      <trkpt lat="44.44017" lon="5.69411">
        <ele>1001.83</ele>
        <time>2014-10-21T12:35:50Z</time>
      </trkpt>
      <trkpt lat="44.44019" lon="5.69432">
        <ele>998.95</ele>
        <time>2014-10-21T12:36:06Z</time>
      </trkpt>
      <trkpt lat="44.44018" lon="5.69455">
        <ele>997.51</ele>
        <time>2014-10-21T12:36:25Z</time>
      </trkpt>
      <trkpt lat="44.44019" lon="5.69468">
        <ele>994.14</ele>
        <time>2014-10-21T12:36:37Z</time>
      </trkpt>
      <trkpt lat="44.44018" lon="5.6948">
        <ele>991.26</ele>
        <time>2014-10-21T12:36:47Z</time>
      </trkpt>
      <trkpt lat="44.44016" lon="5.69493">
        <ele>987.89</ele>
        <time>2014-10-21T12:36:57Z</time>
      </trkpt>
      <trkpt lat="44.44016" lon="5.69501">
        <ele>985.49</ele>
        <time>2014-10-21T12:37:04Z</time>
      </trkpt>
      <trkpt lat="44.44014" lon="5.69519">
        <ele>982.12</ele>
        <time>2014-10-21T12:37:15Z</time>
      </trkpt>
      <trkpt lat="44.44011" lon="5.69533">
        <ele>979.24</ele>
        <time>2014-10-21T12:37:27Z</time>
      </trkpt>
      <trkpt lat="44.44009" lon="5.69548">
        <ele>976.84</ele>
        <time>2014-10-21T12:37:41Z</time>
      </trkpt>
      <trkpt lat="44.44009" lon="5.69558">
        <ele>974.91</ele>
        <time>2014-10-21T12:37:47Z</time>
      </trkpt>
      <trkpt lat="44.44008" lon="5.69573">
        <ele>971.55</ele>
        <time>2014-10-21T12:37:57Z</time>
      </trkpt>
      <trkpt lat="44.44008" lon="5.69574">
        <ele>971.07</ele>
        <time>2014-10-21T12:37:58Z</time>
      </trkpt>
      <trkpt lat="44.44008" lon="5.69576">
        <ele>971.07</ele>
        <time>2014-10-21T12:37:59Z</time>
      </trkpt>
      <trkpt lat="44.44007" lon="5.69595">
        <ele>967.22</ele>
        <time>2014-10-21T12:38:11Z</time>
      </trkpt>
      <trkpt lat="44.44006" lon="5.69606">
        <ele>964.34</ele>
        <time>2014-10-21T12:38:19Z</time>
      </trkpt>
      <trkpt lat="44.44006" lon="5.69618">
        <ele>960.98</ele>
        <time>2014-10-21T12:38:28Z</time>
      </trkpt>
      <trkpt lat="44.44006" lon="5.69621">
        <ele>961.46</ele>
        <time>2014-10-21T12:38:30Z</time>
      </trkpt>
      <trkpt lat="44.44009" lon="5.69636">
        <ele>958.09</ele>
        <time>2014-10-21T12:38:40Z</time>
      </trkpt>
      <trkpt lat="44.44008" lon="5.6964">
        <ele>957.61</ele>
        <time>2014-10-21T12:38:43Z</time>
      </trkpt>
      <trkpt lat="44.44005" lon="5.69659">
        <ele>954.73</ele>
        <time>2014-10-21T12:38:57Z</time>
      </trkpt>
      <trkpt lat="44.44004" lon="5.6966">
        <ele>954.25</ele>
        <time>2014-10-21T12:38:58Z</time>
      </trkpt>
      <trkpt lat="44.44" lon="5.69663">
        <ele>954.25</ele>
        <time>2014-10-21T12:39:02Z</time>
      </trkpt>
      <trkpt lat="44.4399" lon="5.69673">
        <ele>953.28</ele>
        <time>2014-10-21T12:39:13Z</time>
      </trkpt>
      <trkpt lat="44.43979" lon="5.69689">
        <ele>951.84</ele>
        <time>2014-10-21T12:39:29Z</time>
      </trkpt>
      <trkpt lat="44.43975" lon="5.69705">
        <ele>948.96</ele>
        <time>2014-10-21T12:39:40Z</time>
      </trkpt>
      <trkpt lat="44.43974" lon="5.69706">
        <ele>948.48</ele>
        <time>2014-10-21T12:39:41Z</time>
      </trkpt>
      <trkpt lat="44.43971" lon="5.69712">
        <ele>948</ele>
        <time>2014-10-21T12:39:46Z</time>
      </trkpt>
      <trkpt lat="44.43964" lon="5.69734">
        <ele>946.56</ele>
        <time>2014-10-21T12:40:01Z</time>
      </trkpt>
      <trkpt lat="44.43963" lon="5.69759">
        <ele>944.15</ele>
        <time>2014-10-21T12:40:17Z</time>
      </trkpt>
      <trkpt lat="44.43963" lon="5.69772">
        <ele>940.79</ele>
        <time>2014-10-21T12:40:27Z</time>
      </trkpt>
      <trkpt lat="44.43963" lon="5.6978">
        <ele>938.38</ele>
        <time>2014-10-21T12:40:33Z</time>
      </trkpt>
      <trkpt lat="44.43964" lon="5.69797">
        <ele>935.5</ele>
        <time>2014-10-21T12:40:47Z</time>
      </trkpt>
      <trkpt lat="44.43959" lon="5.69814">
        <ele>933.58</ele>
        <time>2014-10-21T12:41:05Z</time>
      </trkpt>
      <trkpt lat="44.43955" lon="5.69818">
        <ele>933.58</ele>
        <time>2014-10-21T12:41:10Z</time>
      </trkpt>
      <trkpt lat="44.43952" lon="5.69826">
        <ele>932.62</ele>
        <time>2014-10-21T12:41:17Z</time>
      </trkpt>
      <trkpt lat="44.43949" lon="5.6985">
        <ele>930.69</ele>
        <time>2014-10-21T12:41:32Z</time>
      </trkpt>
      <trkpt lat="44.43946" lon="5.69873">
        <ele>928.77</ele>
        <time>2014-10-21T12:41:48Z</time>
      </trkpt>
      <trkpt lat="44.43944" lon="5.69897">
        <ele>925.89</ele>
        <time>2014-10-21T12:42:05Z</time>
      </trkpt>
      <trkpt lat="44.43941" lon="5.69923">
        <ele>923.48</ele>
        <time>2014-10-21T12:42:21Z</time>
      </trkpt>
      <trkpt lat="44.43937" lon="5.69945">
        <ele>922.52</ele>
        <time>2014-10-21T12:42:36Z</time>
      </trkpt>
      <trkpt lat="44.4393" lon="5.69965">
        <ele>920.12</ele>
        <time>2014-10-21T12:42:53Z</time>
      </trkpt>
      <trkpt lat="44.43921" lon="5.69986">
        <ele>918.2</ele>
        <time>2014-10-21T12:43:09Z</time>
      </trkpt>
      <trkpt lat="44.4391" lon="5.70006">
        <ele>915.31</ele>
        <time>2014-10-21T12:43:26Z</time>
      </trkpt>
      <trkpt lat="44.43904" lon="5.70024">
        <ele>911.95</ele>
        <time>2014-10-21T12:43:43Z</time>
      </trkpt>
      <trkpt lat="44.439" lon="5.70039">
        <ele>909.06</ele>
        <time>2014-10-21T12:43:56Z</time>
      </trkpt>
      <trkpt lat="44.43894" lon="5.70057">
        <ele>905.7</ele>
        <time>2014-10-21T12:44:10Z</time>
      </trkpt>
      <trkpt lat="44.43885" lon="5.70073">
        <ele>902.82</ele>
        <time>2014-10-21T12:44:24Z</time>
      </trkpt>
      <trkpt lat="44.43874" lon="5.7009">
        <ele>899.93</ele>
        <time>2014-10-21T12:44:39Z</time>
      </trkpt>
      <trkpt lat="44.43869" lon="5.70099">
        <ele>898.49</ele>
        <time>2014-10-21T12:44:46Z</time>
      </trkpt>
      <trkpt lat="44.43859" lon="5.70116">
        <ele>896.09</ele>
        <time>2014-10-21T12:45:02Z</time>
      </trkpt>
      <trkpt lat="44.43848" lon="5.70133">
        <ele>893.68</ele>
        <time>2014-10-21T12:45:18Z</time>
      </trkpt>
      <trkpt lat="44.43845" lon="5.70138">
        <ele>892.24</ele>
        <time>2014-10-21T12:45:24Z</time>
      </trkpt>
      <trkpt lat="44.43839" lon="5.70158">
        <ele>890.32</ele>
        <time>2014-10-21T12:45:39Z</time>
      </trkpt>
      <trkpt lat="44.43835" lon="5.70172">
        <ele>886.95</ele>
        <time>2014-10-21T12:45:52Z</time>
      </trkpt>
      <trkpt lat="44.43832" lon="5.70184">
        <ele>884.07</ele>
        <time>2014-10-21T12:46:02Z</time>
      </trkpt>
      <trkpt lat="44.43828" lon="5.70198">
        <ele>880.71</ele>
        <time>2014-10-21T12:46:16Z</time>
      </trkpt>
      <trkpt lat="44.43823" lon="5.70215">
        <ele>877.82</ele>
        <time>2014-10-21T12:46:31Z</time>
      </trkpt>
      <trkpt lat="44.43817" lon="5.70226">
        <ele>875.42</ele>
        <time>2014-10-21T12:46:42Z</time>
      </trkpt>
      <trkpt lat="44.43808" lon="5.70242">
        <ele>872.05</ele>
        <time>2014-10-21T12:46:57Z</time>
      </trkpt>
      <trkpt lat="44.438" lon="5.70263">
        <ele>869.17</ele>
        <time>2014-10-21T12:47:15Z</time>
      </trkpt>
      <trkpt lat="44.43799" lon="5.70271">
        <ele>867.73</ele>
        <time>2014-10-21T12:47:21Z</time>
      </trkpt>
      <trkpt lat="44.43794" lon="5.70289">
        <ele>864.36</ele>
        <time>2014-10-21T12:47:34Z</time>
      </trkpt>
      <trkpt lat="44.4379" lon="5.70299">
        <ele>861.96</ele>
        <time>2014-10-21T12:47:49Z</time>
      </trkpt>
      <trkpt lat="44.43789" lon="5.70302">
        <ele>861</ele>
        <time>2014-10-21T12:47:57Z</time>
      </trkpt>
      <trkpt lat="44.43786" lon="5.70315">
        <ele>858.11</ele>
        <time>2014-10-21T12:48:08Z</time>
      </trkpt>
      <trkpt lat="44.43782" lon="5.70329">
        <ele>855.23</ele>
        <time>2014-10-21T12:48:22Z</time>
      </trkpt>
      <trkpt lat="44.43779" lon="5.70342">
        <ele>852.35</ele>
        <time>2014-10-21T12:48:32Z</time>
      </trkpt>
      <trkpt lat="44.43779" lon="5.70345">
        <ele>851.38</ele>
        <time>2014-10-21T12:48:34Z</time>
      </trkpt>
      <trkpt lat="44.43777" lon="5.70358">
        <ele>848.5</ele>
        <time>2014-10-21T12:48:48Z</time>
      </trkpt>
      <trkpt lat="44.43775" lon="5.70367">
        <ele>846.1</ele>
        <time>2014-10-21T12:48:55Z</time>
      </trkpt>
      <trkpt lat="44.43773" lon="5.70382">
        <ele>842.25</ele>
        <time>2014-10-21T12:49:05Z</time>
      </trkpt>
      <trkpt lat="44.43771" lon="5.70396">
        <ele>838.89</ele>
        <time>2014-10-21T12:49:17Z</time>
      </trkpt>
      <trkpt lat="44.43768" lon="5.70408">
        <ele>836</ele>
        <time>2014-10-21T12:49:29Z</time>
      </trkpt>
      <trkpt lat="44.43764" lon="5.70419">
        <ele>832.64</ele>
        <time>2014-10-21T12:49:40Z</time>
      </trkpt>
      <trkpt lat="44.4376" lon="5.70431">
        <ele>829.76</ele>
        <time>2014-10-21T12:49:53Z</time>
      </trkpt>
      <trkpt lat="44.43754" lon="5.70443">
        <ele>826.39</ele>
        <time>2014-10-21T12:50:05Z</time>
      </trkpt>
      <trkpt lat="44.43753" lon="5.70444">
        <ele>825.91</ele>
        <time>2014-10-21T12:50:06Z</time>
      </trkpt>
      <trkpt lat="44.43746" lon="5.70464">
        <ele>823.03</ele>
        <time>2014-10-21T12:50:22Z</time>
      </trkpt>
      <trkpt lat="44.43745" lon="5.70463">
        <ele>822.06</ele>
        <time>2014-10-21T12:50:34Z</time>
      </trkpt>
      <trkpt lat="44.43747" lon="5.70464">
        <ele>822.06</ele>
        <time>2014-10-21T12:51:10Z</time>
      </trkpt>
      <trkpt lat="44.43747" lon="5.70464">
        <ele>821.58</ele>
        <time>2014-10-21T12:51:14Z</time>
      </trkpt>
      <trkpt lat="44.43744" lon="5.70464">
        <ele>822.55</ele>
        <time>2014-10-21T12:51:29Z</time>
      </trkpt>
      <trkpt lat="44.43744" lon="5.70471">
        <ele>822.06</ele>
        <time>2014-10-21T12:51:46Z</time>
      </trkpt>
      <trkpt lat="44.43742" lon="5.7048">
        <ele>818.7</ele>
        <time>2014-10-21T12:51:56Z</time>
      </trkpt>
      <trkpt lat="44.43741" lon="5.70484">
        <ele>817.74</ele>
        <time>2014-10-21T12:52:06Z</time>
      </trkpt>
      <trkpt lat="44.43739" lon="5.70494">
        <ele>814.37</ele>
        <time>2014-10-21T12:52:17Z</time>
      </trkpt>
      <trkpt lat="44.43738" lon="5.70503">
        <ele>811.97</ele>
        <time>2014-10-21T12:52:34Z</time>
      </trkpt>
      <trkpt lat="44.43738" lon="5.70508">
        <ele>810.05</ele>
        <time>2014-10-21T12:52:47Z</time>
      </trkpt>
      <trkpt lat="44.43739" lon="5.70509">
        <ele>809.57</ele>
        <time>2014-10-21T12:53:18Z</time>
      </trkpt>
      <trkpt lat="44.4374" lon="5.7051">
        <ele>809.57</ele>
        <time>2014-10-21T12:53:48Z</time>
      </trkpt>
      <trkpt lat="44.43734" lon="5.70521">
        <ele>807.64</ele>
        <time>2014-10-21T12:54:02Z</time>
      </trkpt>
      <trkpt lat="44.43731" lon="5.70536">
        <ele>804.28</ele>
        <time>2014-10-21T12:54:17Z</time>
      </trkpt>
      <trkpt lat="44.43724" lon="5.70554">
        <ele>801.4</ele>
        <time>2014-10-21T12:54:33Z</time>
      </trkpt>
      <trkpt lat="44.43716" lon="5.70568">
        <ele>798.51</ele>
        <time>2014-10-21T12:54:48Z</time>
      </trkpt>
      <trkpt lat="44.43714" lon="5.70578">
        <ele>796.59</ele>
        <time>2014-10-21T12:55:02Z</time>
      </trkpt>
      <trkpt lat="44.43713" lon="5.7058">
        <ele>794.67</ele>
        <time>2014-10-21T12:55:17Z</time>
      </trkpt>
      <trkpt lat="44.43706" lon="5.70591">
        <ele>791.78</ele>
        <time>2014-10-21T12:55:32Z</time>
      </trkpt>
      <trkpt lat="44.43698" lon="5.70601">
        <ele>788.9</ele>
        <time>2014-10-21T12:55:44Z</time>
      </trkpt>
      <trkpt lat="44.43698" lon="5.70602">
        <ele>789.38</ele>
        <time>2014-10-21T12:55:47Z</time>
      </trkpt>
      <trkpt lat="44.43689" lon="5.70613">
        <ele>786.5</ele>
        <time>2014-10-21T12:56:00Z</time>
      </trkpt>
      <trkpt lat="44.43684" lon="5.7062">
        <ele>784.09</ele>
        <time>2014-10-21T12:56:09Z</time>
      </trkpt>
      <trkpt lat="44.43673" lon="5.70626">
        <ele>781.21</ele>
        <time>2014-10-21T12:56:25Z</time>
      </trkpt>
      <trkpt lat="44.43669" lon="5.70633">
        <ele>780.25</ele>
        <time>2014-10-21T12:56:37Z</time>
      </trkpt>
      <trkpt lat="44.43657" lon="5.70636">
        <ele>777.36</ele>
        <time>2014-10-21T12:56:53Z</time>
      </trkpt>
      <trkpt lat="44.43646" lon="5.70639">
        <ele>774.96</ele>
        <time>2014-10-21T12:57:07Z</time>
      </trkpt>
      <trkpt lat="44.43635" lon="5.70646">
        <ele>771.6</ele>
        <time>2014-10-21T12:57:23Z</time>
      </trkpt>
      <trkpt lat="44.43628" lon="5.70654">
        <ele>768.71</ele>
        <time>2014-10-21T12:57:38Z</time>
      </trkpt>
      <trkpt lat="44.43621" lon="5.70661">
        <ele>766.79</ele>
        <time>2014-10-21T12:57:51Z</time>
      </trkpt>
      <trkpt lat="44.43613" lon="5.70669">
        <ele>763.42</ele>
        <time>2014-10-21T12:58:04Z</time>
      </trkpt>
      <trkpt lat="44.43603" lon="5.70677">
        <ele>760.54</ele>
        <time>2014-10-21T12:58:17Z</time>
      </trkpt>
      <trkpt lat="44.43594" lon="5.70685">
        <ele>757.66</ele>
        <time>2014-10-21T12:58:30Z</time>
      </trkpt>
      <trkpt lat="44.43591" lon="5.70695">
        <ele>754.29</ele>
        <time>2014-10-21T12:58:42Z</time>
      </trkpt>
      <trkpt lat="44.43591" lon="5.70698">
        <ele>754.29</ele>
        <time>2014-10-21T12:58:45Z</time>
      </trkpt>
      <trkpt lat="44.43593" lon="5.70708">
        <ele>751.41</ele>
        <time>2014-10-21T12:58:55Z</time>
      </trkpt>
      <trkpt lat="44.43597" lon="5.70721">
        <ele>748.04</ele>
        <time>2014-10-21T12:59:08Z</time>
      </trkpt>
      <trkpt lat="44.43599" lon="5.70735">
        <ele>745.16</ele>
        <time>2014-10-21T12:59:20Z</time>
      </trkpt>
      <trkpt lat="44.43601" lon="5.70747">
        <ele>742.76</ele>
        <time>2014-10-21T12:59:35Z</time>
      </trkpt>
      <trkpt lat="44.43606" lon="5.70759">
        <ele>739.87</ele>
        <time>2014-10-21T12:59:46Z</time>
      </trkpt>
      <trkpt lat="44.43608" lon="5.7077">
        <ele>736.99</ele>
        <time>2014-10-21T13:00:02Z</time>
      </trkpt>
      <trkpt lat="44.43613" lon="5.70781">
        <ele>734.1</ele>
        <time>2014-10-21T13:00:15Z</time>
      </trkpt>
      <trkpt lat="44.43618" lon="5.70787">
        <ele>731.22</ele>
        <time>2014-10-21T13:00:35Z</time>
      </trkpt>
      <trkpt lat="44.43623" lon="5.70798">
        <ele>727.86</ele>
        <time>2014-10-21T13:00:49Z</time>
      </trkpt>
      <trkpt lat="44.43629" lon="5.70798">
        <ele>727.37</ele>
        <time>2014-10-21T13:01:16Z</time>
      </trkpt>
      <trkpt lat="44.43628" lon="5.70809">
        <ele>724.97</ele>
        <time>2014-10-21T13:01:44Z</time>
      </trkpt>
      <trkpt lat="44.43632" lon="5.70815">
        <ele>721.61</ele>
        <time>2014-10-21T13:01:53Z</time>
      </trkpt>
      <trkpt lat="44.43636" lon="5.70822">
        <ele>721.61</ele>
        <time>2014-10-21T13:02:10Z</time>
      </trkpt>
      <trkpt lat="44.4364" lon="5.70827">
        <ele>719.2</ele>
        <time>2014-10-21T13:02:30Z</time>
      </trkpt>
      <trkpt lat="44.43643" lon="5.70835">
        <ele>716.32</ele>
        <time>2014-10-21T13:02:42Z</time>
      </trkpt>
      <trkpt lat="44.43648" lon="5.70847">
        <ele>712.95</ele>
        <time>2014-10-21T13:02:57Z</time>
      </trkpt>
      <trkpt lat="44.43653" lon="5.70862">
        <ele>710.07</ele>
        <time>2014-10-21T13:03:11Z</time>
      </trkpt>
      <trkpt lat="44.43655" lon="5.70886">
        <ele>706.71</ele>
        <time>2014-10-21T13:03:29Z</time>
      </trkpt>
      <trkpt lat="44.43657" lon="5.70901">
        <ele>704.78</ele>
        <time>2014-10-21T13:03:44Z</time>
      </trkpt>
      <trkpt lat="44.43658" lon="5.70921">
        <ele>702.38</ele>
        <time>2014-10-21T13:04:00Z</time>
      </trkpt>
      <trkpt lat="44.43657" lon="5.70941">
        <ele>700.94</ele>
        <time>2014-10-21T13:04:19Z</time>
      </trkpt>
      <trkpt lat="44.43655" lon="5.70962">
        <ele>698.05</ele>
        <time>2014-10-21T13:04:35Z</time>
      </trkpt>
      <trkpt lat="44.43654" lon="5.70982">
        <ele>696.61</ele>
        <time>2014-10-21T13:04:50Z</time>
      </trkpt>
      <trkpt lat="44.43651" lon="5.70992">
        <ele>695.17</ele>
        <time>2014-10-21T13:05:05Z</time>
      </trkpt>
      <trkpt lat="44.43646" lon="5.70995">
        <ele>695.17</ele>
        <time>2014-10-21T13:05:20Z</time>
      </trkpt>
      <trkpt lat="44.43646" lon="5.70996">
        <ele>695.65</ele>
        <time>2014-10-21T13:05:45Z</time>
      </trkpt>
      <trkpt lat="44.43645" lon="5.70997">
        <ele>695.65</ele>
        <time>2014-10-21T13:06:13Z</time>
      </trkpt>
      <trkpt lat="44.43645" lon="5.70997">
        <ele>695.65</ele>
        <time>2014-10-21T13:06:14Z</time>
      </trkpt>
    </trkseg>
  </trk>
</gpx>